<?xml version="1.0" encoding="UTF-8" standalone="no" ?>
<gpx xmlns="http://www.topografix.com/GPX/1/1" xmlns:xsi="http://www.w3.org/2001/XMLSchema-instance" xsi:schemaLocation="http://www.topografix.com/GPX/1/1 http://www.topografix.com/GPX/1/1/gpx.xsd" version="1.1" creator="VisuGPX - https://www.visugpx.com">
  <metadata>
    <name>Promenade Pont Scorff</name>
    <desc><![CDATA[Attention la marée monte]]></desc>
  </metadata>
  <wpt lat="47.66068" lon="-3.50304">
    <name><![CDATA[001]]></name>
  </wpt>
  <wpt lat="47.66068" lon="-3.50304">
    <name><![CDATA[002]]></name>
  </wpt>
  <wpt lat="47.66068" lon="-3.50304">
    <name><![CDATA[003]]></name>
  </wpt>
  <trk>
    <name><![CDATA[ACTIVE LOG: 09 FEV 2013 14:40]]></name>
    <trkseg>
      <trkpt lat="47.82893" lon="-3.40329">
        <ele>16.96</ele>
        <time>2013-02-09T13:40:37Z</time>
      </trkpt>
      <trkpt lat="47.82893" lon="-3.40328">
        <ele>17.44</ele>
        <time>2013-02-09T13:41:18Z</time>
      </trkpt>
      <trkpt lat="47.82892" lon="-3.40328">
        <ele>16.96</ele>
        <time>2013-02-09T13:41:26Z</time>
      </trkpt>
      <trkpt lat="47.82891" lon="-3.40329">
        <ele>17.44</ele>
        <time>2013-02-09T13:41:39Z</time>
      </trkpt>
      <trkpt lat="47.82891" lon="-3.4033">
        <ele>17.44</ele>
        <time>2013-02-09T13:41:45Z</time>
      </trkpt>
      <trkpt lat="47.82891" lon="-3.40329">
        <ele>17.92</ele>
        <time>2013-02-09T13:41:56Z</time>
      </trkpt>
      <trkpt lat="47.82892" lon="-3.40331">
        <ele>18.4</ele>
        <time>2013-02-09T13:42:05Z</time>
      </trkpt>
      <trkpt lat="47.82895" lon="-3.40329">
        <ele>19.36</ele>
        <time>2013-02-09T13:42:10Z</time>
      </trkpt>
      <trkpt lat="47.82901" lon="-3.40334">
        <ele>19.84</ele>
        <time>2013-02-09T13:42:16Z</time>
      </trkpt>
      <trkpt lat="47.82901" lon="-3.40337">
        <ele>20.32</ele>
        <time>2013-02-09T13:42:18Z</time>
      </trkpt>
      <trkpt lat="47.82903" lon="-3.40353">
        <ele>20.32</ele>
        <time>2013-02-09T13:42:24Z</time>
      </trkpt>
      <trkpt lat="47.82898" lon="-3.40336">
        <ele>20.81</ele>
        <time>2013-02-09T13:42:29Z</time>
      </trkpt>
      <trkpt lat="47.82897" lon="-3.40327">
        <ele>22.25</ele>
        <time>2013-02-09T13:42:36Z</time>
      </trkpt>
      <trkpt lat="47.82899" lon="-3.40325">
        <ele>22.25</ele>
        <time>2013-02-09T13:42:38Z</time>
      </trkpt>
      <trkpt lat="47.82902" lon="-3.40339">
        <ele>23.21</ele>
        <time>2013-02-09T13:42:44Z</time>
      </trkpt>
      <trkpt lat="47.82902" lon="-3.40344">
        <ele>23.21</ele>
        <time>2013-02-09T13:42:47Z</time>
      </trkpt>
      <trkpt lat="47.82898" lon="-3.40337">
        <ele>23.21</ele>
        <time>2013-02-09T13:42:51Z</time>
      </trkpt>
      <trkpt lat="47.82898" lon="-3.40335">
        <ele>23.21</ele>
        <time>2013-02-09T13:42:53Z</time>
      </trkpt>
      <trkpt lat="47.82911" lon="-3.40348">
        <ele>24.17</ele>
        <time>2013-02-09T13:43:00Z</time>
      </trkpt>
      <trkpt lat="47.82922" lon="-3.40355">
        <ele>24.65</ele>
        <time>2013-02-09T13:43:07Z</time>
      </trkpt>
      <trkpt lat="47.82929" lon="-3.40361">
        <ele>25.13</ele>
        <time>2013-02-09T13:43:16Z</time>
      </trkpt>
      <trkpt lat="47.82947" lon="-3.40378">
        <ele>26.09</ele>
        <time>2013-02-09T13:43:22Z</time>
      </trkpt>
      <trkpt lat="47.8297" lon="-3.40375">
        <ele>26.57</ele>
        <time>2013-02-09T13:43:28Z</time>
      </trkpt>
      <trkpt lat="47.83007" lon="-3.40337">
        <ele>27.53</ele>
        <time>2013-02-09T13:43:39Z</time>
      </trkpt>
      <trkpt lat="47.83037" lon="-3.40303">
        <ele>29.94</ele>
        <time>2013-02-09T13:43:48Z</time>
      </trkpt>
      <trkpt lat="47.83062" lon="-3.40268">
        <ele>29.94</ele>
        <time>2013-02-09T13:43:56Z</time>
      </trkpt>
      <trkpt lat="47.83103" lon="-3.40198">
        <ele>31.86</ele>
        <time>2013-02-09T13:44:11Z</time>
      </trkpt>
      <trkpt lat="47.8314" lon="-3.40132">
        <ele>33.78</ele>
        <time>2013-02-09T13:44:25Z</time>
      </trkpt>
      <trkpt lat="47.83176" lon="-3.40079">
        <ele>37.15</ele>
        <time>2013-02-09T13:44:37Z</time>
      </trkpt>
      <trkpt lat="47.83216" lon="-3.40037">
        <ele>39.55</ele>
        <time>2013-02-09T13:44:48Z</time>
      </trkpt>
      <trkpt lat="47.83232" lon="-3.4002">
        <ele>40.03</ele>
        <time>2013-02-09T13:44:53Z</time>
      </trkpt>
      <trkpt lat="47.8325" lon="-3.4001">
        <ele>40.51</ele>
        <time>2013-02-09T13:45:00Z</time>
      </trkpt>
      <trkpt lat="47.83265" lon="-3.40003">
        <ele>40.99</ele>
        <time>2013-02-09T13:45:09Z</time>
      </trkpt>
      <trkpt lat="47.83282" lon="-3.39996">
        <ele>41.95</ele>
        <time>2013-02-09T13:45:17Z</time>
      </trkpt>
      <trkpt lat="47.83304" lon="-3.39996">
        <ele>41.95</ele>
        <time>2013-02-09T13:45:24Z</time>
      </trkpt>
      <trkpt lat="47.83315" lon="-3.39993">
        <ele>41.47</ele>
        <time>2013-02-09T13:45:27Z</time>
      </trkpt>
      <trkpt lat="47.83334" lon="-3.39968">
        <ele>40.51</ele>
        <time>2013-02-09T13:45:33Z</time>
      </trkpt>
      <trkpt lat="47.83351" lon="-3.39959">
        <ele>39.07</ele>
        <time>2013-02-09T13:45:36Z</time>
      </trkpt>
      <trkpt lat="47.83372" lon="-3.39954">
        <ele>37.15</ele>
        <time>2013-02-09T13:45:39Z</time>
      </trkpt>
      <trkpt lat="47.83429" lon="-3.39955">
        <ele>35.71</ele>
        <time>2013-02-09T13:45:47Z</time>
      </trkpt>
      <trkpt lat="47.83445" lon="-3.39951">
        <ele>36.67</ele>
        <time>2013-02-09T13:45:52Z</time>
      </trkpt>
      <trkpt lat="47.83462" lon="-3.39922">
        <ele>35.71</ele>
        <time>2013-02-09T13:45:59Z</time>
      </trkpt>
      <trkpt lat="47.83465" lon="-3.39917">
        <ele>35.23</ele>
        <time>2013-02-09T13:46:00Z</time>
      </trkpt>
      <trkpt lat="47.83476" lon="-3.39899">
        <ele>34.74</ele>
        <time>2013-02-09T13:46:04Z</time>
      </trkpt>
      <trkpt lat="47.83483" lon="-3.39877">
        <ele>32.82</ele>
        <time>2013-02-09T13:46:08Z</time>
      </trkpt>
      <trkpt lat="47.83487" lon="-3.39858">
        <ele>30.42</ele>
        <time>2013-02-09T13:46:11Z</time>
      </trkpt>
      <trkpt lat="47.83496" lon="-3.39833">
        <ele>29.46</ele>
        <time>2013-02-09T13:46:17Z</time>
      </trkpt>
      <trkpt lat="47.83508" lon="-3.39796">
        <ele>28.5</ele>
        <time>2013-02-09T13:46:25Z</time>
      </trkpt>
      <trkpt lat="47.83515" lon="-3.39767">
        <ele>27.53</ele>
        <time>2013-02-09T13:46:31Z</time>
      </trkpt>
      <trkpt lat="47.83519" lon="-3.39751">
        <ele>27.05</ele>
        <time>2013-02-09T13:46:34Z</time>
      </trkpt>
      <trkpt lat="47.83523" lon="-3.39709">
        <ele>26.09</ele>
        <time>2013-02-09T13:46:40Z</time>
      </trkpt>
      <trkpt lat="47.83518" lon="-3.39689">
        <ele>27.05</ele>
        <time>2013-02-09T13:46:45Z</time>
      </trkpt>
      <trkpt lat="47.83514" lon="-3.39684">
        <ele>27.53</ele>
        <time>2013-02-09T13:46:47Z</time>
      </trkpt>
      <trkpt lat="47.83493" lon="-3.39668">
        <ele>27.05</ele>
        <time>2013-02-09T13:46:56Z</time>
      </trkpt>
      <trkpt lat="47.83475" lon="-3.39646">
        <ele>22.73</ele>
        <time>2013-02-09T13:47:03Z</time>
      </trkpt>
      <trkpt lat="47.83466" lon="-3.39622">
        <ele>23.21</ele>
        <time>2013-02-09T13:47:10Z</time>
      </trkpt>
      <trkpt lat="47.83458" lon="-3.39601">
        <ele>23.69</ele>
        <time>2013-02-09T13:47:15Z</time>
      </trkpt>
      <trkpt lat="47.83459" lon="-3.39584">
        <ele>22.73</ele>
        <time>2013-02-09T13:47:21Z</time>
      </trkpt>
      <trkpt lat="47.83461" lon="-3.39583">
        <ele>23.21</ele>
        <time>2013-02-09T13:47:27Z</time>
      </trkpt>
      <trkpt lat="47.83459" lon="-3.39602">
        <ele>23.21</ele>
        <time>2013-02-09T13:47:34Z</time>
      </trkpt>
      <trkpt lat="47.83468" lon="-3.39629">
        <ele>23.21</ele>
        <time>2013-02-09T13:47:41Z</time>
      </trkpt>
      <trkpt lat="47.83467" lon="-3.39637">
        <ele>21.77</ele>
        <time>2013-02-09T13:47:43Z</time>
      </trkpt>
      <trkpt lat="47.83434" lon="-3.39629">
        <ele>19.36</ele>
        <time>2013-02-09T13:47:50Z</time>
      </trkpt>
      <trkpt lat="47.83403" lon="-3.39621">
        <ele>16</ele>
        <time>2013-02-09T13:47:56Z</time>
      </trkpt>
      <trkpt lat="47.83393" lon="-3.39619">
        <ele>13.6</ele>
        <time>2013-02-09T13:48:00Z</time>
      </trkpt>
      <trkpt lat="47.83388" lon="-3.39596">
        <ele>12.15</ele>
        <time>2013-02-09T13:48:06Z</time>
      </trkpt>
      <trkpt lat="47.83381" lon="-3.39561">
        <ele>11.19</ele>
        <time>2013-02-09T13:48:13Z</time>
      </trkpt>
      <trkpt lat="47.8337" lon="-3.3952">
        <ele>13.12</ele>
        <time>2013-02-09T13:48:22Z</time>
      </trkpt>
      <trkpt lat="47.83361" lon="-3.39478">
        <ele>17.44</ele>
        <time>2013-02-09T13:48:30Z</time>
      </trkpt>
      <trkpt lat="47.83354" lon="-3.39457">
        <ele>19.84</ele>
        <time>2013-02-09T13:48:36Z</time>
      </trkpt>
      <trkpt lat="47.83352" lon="-3.39431">
        <ele>20.81</ele>
        <time>2013-02-09T13:48:42Z</time>
      </trkpt>
      <trkpt lat="47.8336" lon="-3.39417">
        <ele>20.81</ele>
        <time>2013-02-09T13:48:47Z</time>
      </trkpt>
      <trkpt lat="47.8338" lon="-3.39403">
        <ele>14.56</ele>
        <time>2013-02-09T13:48:51Z</time>
      </trkpt>
      <trkpt lat="47.83393" lon="-3.39411">
        <ele>12.15</ele>
        <time>2013-02-09T13:48:54Z</time>
      </trkpt>
      <trkpt lat="47.83408" lon="-3.39419">
        <ele>9.75</ele>
        <time>2013-02-09T13:48:57Z</time>
      </trkpt>
      <trkpt lat="47.8343" lon="-3.39414">
        <ele>3.98</ele>
        <time>2013-02-09T13:49:03Z</time>
      </trkpt>
      <trkpt lat="47.83436" lon="-3.39409">
        <ele>3.02</ele>
        <time>2013-02-09T13:49:05Z</time>
      </trkpt>
      <trkpt lat="47.83425" lon="-3.39373">
        <ele>-0.34</ele>
        <time>2013-02-09T13:49:14Z</time>
      </trkpt>
      <trkpt lat="47.8343" lon="-3.3935">
        <ele>-0.82</ele>
        <time>2013-02-09T13:49:20Z</time>
      </trkpt>
      <trkpt lat="47.83435" lon="-3.3934">
        <ele>0.14</ele>
        <time>2013-02-09T13:49:23Z</time>
      </trkpt>
      <trkpt lat="47.83452" lon="-3.39334">
        <ele>0.62</ele>
        <time>2013-02-09T13:49:31Z</time>
      </trkpt>
      <trkpt lat="47.83447" lon="-3.39317">
        <ele>0.62</ele>
        <time>2013-02-09T13:49:37Z</time>
      </trkpt>
      <trkpt lat="47.83442" lon="-3.39298">
        <ele>1.58</ele>
        <time>2013-02-09T13:49:45Z</time>
      </trkpt>
      <trkpt lat="47.83435" lon="-3.39275">
        <ele>1.58</ele>
        <time>2013-02-09T13:49:55Z</time>
      </trkpt>
      <trkpt lat="47.83427" lon="-3.39255">
        <ele>2.06</ele>
        <time>2013-02-09T13:50:02Z</time>
      </trkpt>
      <trkpt lat="47.83418" lon="-3.39243">
        <ele>0.14</ele>
        <time>2013-02-09T13:50:07Z</time>
      </trkpt>
      <trkpt lat="47.83408" lon="-3.39223">
        <ele>0.62</ele>
        <time>2013-02-09T13:50:17Z</time>
      </trkpt>
      <trkpt lat="47.83398" lon="-3.39205">
        <ele>0.14</ele>
        <time>2013-02-09T13:50:25Z</time>
      </trkpt>
      <trkpt lat="47.83387" lon="-3.39187">
        <ele>1.1</ele>
        <time>2013-02-09T13:50:33Z</time>
      </trkpt>
      <trkpt lat="47.83377" lon="-3.39163">
        <ele>-0.82</ele>
        <time>2013-02-09T13:50:43Z</time>
      </trkpt>
      <trkpt lat="47.83372" lon="-3.39144">
        <ele>-1.79</ele>
        <time>2013-02-09T13:50:50Z</time>
      </trkpt>
      <trkpt lat="47.83364" lon="-3.39125">
        <ele>-2.27</ele>
        <time>2013-02-09T13:50:58Z</time>
      </trkpt>
      <trkpt lat="47.83358" lon="-3.39114">
        <ele>-2.27</ele>
        <time>2013-02-09T13:51:04Z</time>
      </trkpt>
      <trkpt lat="47.83349" lon="-3.39102">
        <ele>-1.79</ele>
        <time>2013-02-09T13:51:12Z</time>
      </trkpt>
      <trkpt lat="47.83349" lon="-3.39102">
        <ele>-1.79</ele>
        <time>2013-02-09T13:51:18Z</time>
      </trkpt>
      <trkpt lat="47.83347" lon="-3.39091">
        <ele>-1.3</ele>
        <time>2013-02-09T13:51:54Z</time>
      </trkpt>
      <trkpt lat="47.83338" lon="-3.39071">
        <ele>-2.27</ele>
        <time>2013-02-09T13:52:05Z</time>
      </trkpt>
      <trkpt lat="47.83327" lon="-3.39041">
        <ele>-3.71</ele>
        <time>2013-02-09T13:52:10Z</time>
      </trkpt>
      <trkpt lat="47.83317" lon="-3.39004">
        <ele>-5.15</ele>
        <time>2013-02-09T13:52:16Z</time>
      </trkpt>
      <trkpt lat="47.83309" lon="-3.38979">
        <ele>-10.44</ele>
        <time>2013-02-09T13:52:22Z</time>
      </trkpt>
      <trkpt lat="47.83295" lon="-3.38956">
        <ele>-10.92</ele>
        <time>2013-02-09T13:52:29Z</time>
      </trkpt>
      <trkpt lat="47.83283" lon="-3.38934">
        <ele>-11.4</ele>
        <time>2013-02-09T13:52:36Z</time>
      </trkpt>
      <trkpt lat="47.83261" lon="-3.38896">
        <ele>-14.28</ele>
        <time>2013-02-09T13:52:43Z</time>
      </trkpt>
      <trkpt lat="47.83244" lon="-3.3887">
        <ele>-11.88</ele>
        <time>2013-02-09T13:52:50Z</time>
      </trkpt>
      <trkpt lat="47.83231" lon="-3.38846">
        <ele>-11.4</ele>
        <time>2013-02-09T13:52:57Z</time>
      </trkpt>
      <trkpt lat="47.83223" lon="-3.38829">
        <ele>-9.96</ele>
        <time>2013-02-09T13:53:02Z</time>
      </trkpt>
      <trkpt lat="47.83221" lon="-3.38824">
        <ele>-9</ele>
        <time>2013-02-09T13:53:09Z</time>
      </trkpt>
      <trkpt lat="47.83212" lon="-3.38804">
        <ele>-9.48</ele>
        <time>2013-02-09T13:53:22Z</time>
      </trkpt>
      <trkpt lat="47.83202" lon="-3.38783">
        <ele>-10.44</ele>
        <time>2013-02-09T13:53:28Z</time>
      </trkpt>
      <trkpt lat="47.83184" lon="-3.38766">
        <ele>-13.32</ele>
        <time>2013-02-09T13:53:36Z</time>
      </trkpt>
      <trkpt lat="47.83165" lon="-3.38755">
        <ele>-16.69</ele>
        <time>2013-02-09T13:53:44Z</time>
      </trkpt>
      <trkpt lat="47.83148" lon="-3.38759">
        <ele>-18.13</ele>
        <time>2013-02-09T13:53:50Z</time>
      </trkpt>
      <trkpt lat="47.8313" lon="-3.38769">
        <ele>-19.09</ele>
        <time>2013-02-09T13:53:56Z</time>
      </trkpt>
      <trkpt lat="47.83112" lon="-3.38799">
        <ele>-17.65</ele>
        <time>2013-02-09T13:54:05Z</time>
      </trkpt>
      <trkpt lat="47.83106" lon="-3.38817">
        <ele>-16.21</ele>
        <time>2013-02-09T13:54:10Z</time>
      </trkpt>
      <trkpt lat="47.83099" lon="-3.3884">
        <ele>-15.72</ele>
        <time>2013-02-09T13:54:15Z</time>
      </trkpt>
      <trkpt lat="47.83079" lon="-3.38871">
        <ele>-12.36</ele>
        <time>2013-02-09T13:54:24Z</time>
      </trkpt>
      <trkpt lat="47.83065" lon="-3.38891">
        <ele>-11.4</ele>
        <time>2013-02-09T13:54:31Z</time>
      </trkpt>
      <trkpt lat="47.83061" lon="-3.38912">
        <ele>-9.48</ele>
        <time>2013-02-09T13:54:39Z</time>
      </trkpt>
      <trkpt lat="47.83057" lon="-3.38921">
        <ele>-4.67</ele>
        <time>2013-02-09T13:54:45Z</time>
      </trkpt>
      <trkpt lat="47.83041" lon="-3.38923">
        <ele>1.1</ele>
        <time>2013-02-09T13:54:53Z</time>
      </trkpt>
      <trkpt lat="47.83029" lon="-3.38927">
        <ele>3.98</ele>
        <time>2013-02-09T13:55:00Z</time>
      </trkpt>
      <trkpt lat="47.8302" lon="-3.38928">
        <ele>5.42</ele>
        <time>2013-02-09T13:55:07Z</time>
      </trkpt>
      <trkpt lat="47.83018" lon="-3.3893">
        <ele>5.42</ele>
        <time>2013-02-09T13:55:48Z</time>
      </trkpt>
      <trkpt lat="47.83004" lon="-3.38934">
        <ele>6.39</ele>
        <time>2013-02-09T13:55:59Z</time>
      </trkpt>
      <trkpt lat="47.8299" lon="-3.38942">
        <ele>8.31</ele>
        <time>2013-02-09T13:56:06Z</time>
      </trkpt>
      <trkpt lat="47.82979" lon="-3.38945">
        <ele>8.31</ele>
        <time>2013-02-09T13:56:12Z</time>
      </trkpt>
      <trkpt lat="47.82962" lon="-3.38953">
        <ele>6.87</ele>
        <time>2013-02-09T13:56:19Z</time>
      </trkpt>
      <trkpt lat="47.82944" lon="-3.38964">
        <ele>5.42</ele>
        <time>2013-02-09T13:56:27Z</time>
      </trkpt>
      <trkpt lat="47.82928" lon="-3.38971">
        <ele>6.39</ele>
        <time>2013-02-09T13:56:34Z</time>
      </trkpt>
      <trkpt lat="47.82903" lon="-3.38986">
        <ele>5.42</ele>
        <time>2013-02-09T13:56:44Z</time>
      </trkpt>
      <trkpt lat="47.82882" lon="-3.39004">
        <ele>3.02</ele>
        <time>2013-02-09T13:56:52Z</time>
      </trkpt>
      <trkpt lat="47.82869" lon="-3.39016">
        <ele>3.02</ele>
        <time>2013-02-09T13:56:57Z</time>
      </trkpt>
      <trkpt lat="47.82858" lon="-3.39039">
        <ele>4.46</ele>
        <time>2013-02-09T13:57:02Z</time>
      </trkpt>
      <trkpt lat="47.82854" lon="-3.39067">
        <ele>3.5</ele>
        <time>2013-02-09T13:57:08Z</time>
      </trkpt>
      <trkpt lat="47.82849" lon="-3.39113">
        <ele>5.91</ele>
        <time>2013-02-09T13:57:17Z</time>
      </trkpt>
      <trkpt lat="47.82843" lon="-3.3914">
        <ele>6.39</ele>
        <time>2013-02-09T13:57:22Z</time>
      </trkpt>
      <trkpt lat="47.82852" lon="-3.39181">
        <ele>3.02</ele>
        <time>2013-02-09T13:57:27Z</time>
      </trkpt>
      <trkpt lat="47.82852" lon="-3.39212">
        <ele>2.06</ele>
        <time>2013-02-09T13:57:30Z</time>
      </trkpt>
      <trkpt lat="47.82848" lon="-3.39221">
        <ele>1.58</ele>
        <time>2013-02-09T13:57:31Z</time>
      </trkpt>
      <trkpt lat="47.82825" lon="-3.39264">
        <ele>-0.34</ele>
        <time>2013-02-09T13:57:38Z</time>
      </trkpt>
      <trkpt lat="47.82814" lon="-3.3928">
        <ele>4.46</ele>
        <time>2013-02-09T13:57:44Z</time>
      </trkpt>
      <trkpt lat="47.82807" lon="-3.39292">
        <ele>7.83</ele>
        <time>2013-02-09T13:57:50Z</time>
      </trkpt>
      <trkpt lat="47.82793" lon="-3.39313">
        <ele>13.12</ele>
        <time>2013-02-09T13:57:58Z</time>
      </trkpt>
      <trkpt lat="47.82776" lon="-3.39338">
        <ele>16</ele>
        <time>2013-02-09T13:58:06Z</time>
      </trkpt>
      <trkpt lat="47.82767" lon="-3.39351">
        <ele>19.36</ele>
        <time>2013-02-09T13:58:12Z</time>
      </trkpt>
      <trkpt lat="47.82765" lon="-3.39353">
        <ele>19.36</ele>
        <time>2013-02-09T13:58:15Z</time>
      </trkpt>
      <trkpt lat="47.82753" lon="-3.39332">
        <ele>20.32</ele>
        <time>2013-02-09T13:58:22Z</time>
      </trkpt>
      <trkpt lat="47.82732" lon="-3.39298">
        <ele>18.4</ele>
        <time>2013-02-09T13:58:29Z</time>
      </trkpt>
      <trkpt lat="47.82704" lon="-3.39262">
        <ele>16</ele>
        <time>2013-02-09T13:58:35Z</time>
      </trkpt>
      <trkpt lat="47.82682" lon="-3.39244">
        <ele>14.08</ele>
        <time>2013-02-09T13:58:39Z</time>
      </trkpt>
      <trkpt lat="47.8265" lon="-3.39205">
        <ele>9.75</ele>
        <time>2013-02-09T13:58:44Z</time>
      </trkpt>
      <trkpt lat="47.82629" lon="-3.39182">
        <ele>7.35</ele>
        <time>2013-02-09T13:58:47Z</time>
      </trkpt>
      <trkpt lat="47.82608" lon="-3.39175">
        <ele>3.98</ele>
        <time>2013-02-09T13:58:52Z</time>
      </trkpt>
      <trkpt lat="47.82593" lon="-3.39178">
        <ele>2.54</ele>
        <time>2013-02-09T13:58:56Z</time>
      </trkpt>
      <trkpt lat="47.82582" lon="-3.39149">
        <ele>-0.34</ele>
        <time>2013-02-09T13:59:01Z</time>
      </trkpt>
      <trkpt lat="47.82572" lon="-3.3909">
        <ele>-0.82</ele>
        <time>2013-02-09T13:59:09Z</time>
      </trkpt>
      <trkpt lat="47.82571" lon="-3.39082">
        <ele>-0.82</ele>
        <time>2013-02-09T13:59:10Z</time>
      </trkpt>
      <trkpt lat="47.82559" lon="-3.3906">
        <ele>-0.82</ele>
        <time>2013-02-09T13:59:14Z</time>
      </trkpt>
      <trkpt lat="47.82549" lon="-3.39065">
        <ele>-2.27</ele>
        <time>2013-02-09T13:59:18Z</time>
      </trkpt>
      <trkpt lat="47.82525" lon="-3.39083">
        <ele>-3.23</ele>
        <time>2013-02-09T13:59:27Z</time>
      </trkpt>
      <trkpt lat="47.82505" lon="-3.39093">
        <ele>-3.71</ele>
        <time>2013-02-09T13:59:34Z</time>
      </trkpt>
      <trkpt lat="47.82485" lon="-3.39106">
        <ele>-3.71</ele>
        <time>2013-02-09T13:59:42Z</time>
      </trkpt>
      <trkpt lat="47.82482" lon="-3.39127">
        <ele>-2.75</ele>
        <time>2013-02-09T13:59:49Z</time>
      </trkpt>
      <trkpt lat="47.82487" lon="-3.39158">
        <ele>-1.3</ele>
        <time>2013-02-09T13:59:58Z</time>
      </trkpt>
      <trkpt lat="47.8249" lon="-3.39179">
        <ele>-1.79</ele>
        <time>2013-02-09T14:00:04Z</time>
      </trkpt>
      <trkpt lat="47.82465" lon="-3.39184">
        <ele>-4.67</ele>
        <time>2013-02-09T14:00:13Z</time>
      </trkpt>
      <trkpt lat="47.82425" lon="-3.3919">
        <ele>-3.71</ele>
        <time>2013-02-09T14:00:25Z</time>
      </trkpt>
      <trkpt lat="47.82377" lon="-3.39194">
        <ele>-4.19</ele>
        <time>2013-02-09T14:00:38Z</time>
      </trkpt>
      <trkpt lat="47.82339" lon="-3.39195">
        <ele>-3.71</ele>
        <time>2013-02-09T14:00:48Z</time>
      </trkpt>
      <trkpt lat="47.82316" lon="-3.39197">
        <ele>-4.19</ele>
        <time>2013-02-09T14:00:57Z</time>
      </trkpt>
      <trkpt lat="47.82298" lon="-3.39198">
        <ele>-5.15</ele>
        <time>2013-02-09T14:01:04Z</time>
      </trkpt>
      <trkpt lat="47.82275" lon="-3.39201">
        <ele>-5.63</ele>
        <time>2013-02-09T14:01:12Z</time>
      </trkpt>
      <trkpt lat="47.82257" lon="-3.3921">
        <ele>-5.15</ele>
        <time>2013-02-09T14:01:19Z</time>
      </trkpt>
      <trkpt lat="47.82246" lon="-3.39211">
        <ele>-4.67</ele>
        <time>2013-02-09T14:01:26Z</time>
      </trkpt>
      <trkpt lat="47.82229" lon="-3.39208">
        <ele>-4.67</ele>
        <time>2013-02-09T14:01:35Z</time>
      </trkpt>
      <trkpt lat="47.82212" lon="-3.39211">
        <ele>-4.67</ele>
        <time>2013-02-09T14:01:44Z</time>
      </trkpt>
      <trkpt lat="47.82201" lon="-3.39214">
        <ele>-4.19</ele>
        <time>2013-02-09T14:01:50Z</time>
      </trkpt>
      <trkpt lat="47.82183" lon="-3.39223">
        <ele>-4.19</ele>
        <time>2013-02-09T14:02:00Z</time>
      </trkpt>
      <trkpt lat="47.82174" lon="-3.39226">
        <ele>-4.19</ele>
        <time>2013-02-09T14:02:07Z</time>
      </trkpt>
      <trkpt lat="47.82164" lon="-3.39228">
        <ele>-4.19</ele>
        <time>2013-02-09T14:02:13Z</time>
      </trkpt>
      <trkpt lat="47.82153" lon="-3.39229">
        <ele>-4.67</ele>
        <time>2013-02-09T14:02:19Z</time>
      </trkpt>
      <trkpt lat="47.8214" lon="-3.39227">
        <ele>-3.71</ele>
        <time>2013-02-09T14:02:27Z</time>
      </trkpt>
      <trkpt lat="47.82136" lon="-3.39227">
        <ele>-3.23</ele>
        <time>2013-02-09T14:02:35Z</time>
      </trkpt>
      <trkpt lat="47.8213" lon="-3.39229">
        <ele>-2.75</ele>
        <time>2013-02-09T14:02:41Z</time>
      </trkpt>
      <trkpt lat="47.8212" lon="-3.39235">
        <ele>-0.82</ele>
        <time>2013-02-09T14:02:50Z</time>
      </trkpt>
      <trkpt lat="47.8211" lon="-3.39236">
        <ele>0.62</ele>
        <time>2013-02-09T14:03:02Z</time>
      </trkpt>
      <trkpt lat="47.82103" lon="-3.39231">
        <ele>1.1</ele>
        <time>2013-02-09T14:03:11Z</time>
      </trkpt>
      <trkpt lat="47.82102" lon="-3.39231">
        <ele>1.1</ele>
        <time>2013-02-09T14:03:12Z</time>
      </trkpt>
      <trkpt lat="47.82097" lon="-3.39233">
        <ele>1.58</ele>
        <time>2013-02-09T14:03:15Z</time>
      </trkpt>
      <trkpt lat="47.82082" lon="-3.39238">
        <ele>2.54</ele>
        <time>2013-02-09T14:03:26Z</time>
      </trkpt>
      <trkpt lat="47.82068" lon="-3.39232">
        <ele>3.02</ele>
        <time>2013-02-09T14:03:36Z</time>
      </trkpt>
      <trkpt lat="47.8206" lon="-3.39232">
        <ele>3.98</ele>
        <time>2013-02-09T14:03:41Z</time>
      </trkpt>
      <trkpt lat="47.8205" lon="-3.39237">
        <ele>5.42</ele>
        <time>2013-02-09T14:03:47Z</time>
      </trkpt>
      <trkpt lat="47.82041" lon="-3.39239">
        <ele>5.91</ele>
        <time>2013-02-09T14:03:53Z</time>
      </trkpt>
      <trkpt lat="47.82033" lon="-3.39239">
        <ele>8.79</ele>
        <time>2013-02-09T14:04:01Z</time>
      </trkpt>
      <trkpt lat="47.82028" lon="-3.39235">
        <ele>10.71</ele>
        <time>2013-02-09T14:04:07Z</time>
      </trkpt>
      <trkpt lat="47.8202" lon="-3.39221">
        <ele>13.12</ele>
        <time>2013-02-09T14:04:16Z</time>
      </trkpt>
      <trkpt lat="47.82011" lon="-3.39212">
        <ele>14.56</ele>
        <time>2013-02-09T14:04:25Z</time>
      </trkpt>
      <trkpt lat="47.82006" lon="-3.39212">
        <ele>16</ele>
        <time>2013-02-09T14:04:40Z</time>
      </trkpt>
      <trkpt lat="47.82004" lon="-3.39205">
        <ele>17.44</ele>
        <time>2013-02-09T14:04:51Z</time>
      </trkpt>
      <trkpt lat="47.82003" lon="-3.39204">
        <ele>18.4</ele>
        <time>2013-02-09T14:05:04Z</time>
      </trkpt>
      <trkpt lat="47.81997" lon="-3.39202">
        <ele>19.36</ele>
        <time>2013-02-09T14:05:29Z</time>
      </trkpt>
      <trkpt lat="47.81991" lon="-3.392">
        <ele>21.29</ele>
        <time>2013-02-09T14:05:41Z</time>
      </trkpt>
      <trkpt lat="47.81982" lon="-3.39197">
        <ele>22.73</ele>
        <time>2013-02-09T14:05:53Z</time>
      </trkpt>
      <trkpt lat="47.8198" lon="-3.39193">
        <ele>24.65</ele>
        <time>2013-02-09T14:06:02Z</time>
      </trkpt>
      <trkpt lat="47.81975" lon="-3.39194">
        <ele>25.61</ele>
        <time>2013-02-09T14:06:11Z</time>
      </trkpt>
      <trkpt lat="47.81965" lon="-3.39197">
        <ele>26.57</ele>
        <time>2013-02-09T14:06:23Z</time>
      </trkpt>
      <trkpt lat="47.81964" lon="-3.39198">
        <ele>27.05</ele>
        <time>2013-02-09T14:06:37Z</time>
      </trkpt>
      <trkpt lat="47.81963" lon="-3.392">
        <ele>27.53</ele>
        <time>2013-02-09T14:07:40Z</time>
      </trkpt>
      <trkpt lat="47.81948" lon="-3.39211">
        <ele>27.53</ele>
        <time>2013-02-09T14:07:50Z</time>
      </trkpt>
      <trkpt lat="47.81933" lon="-3.39219">
        <ele>26.09</ele>
        <time>2013-02-09T14:08:01Z</time>
      </trkpt>
      <trkpt lat="47.81924" lon="-3.39236">
        <ele>25.13</ele>
        <time>2013-02-09T14:08:10Z</time>
      </trkpt>
      <trkpt lat="47.81918" lon="-3.39239">
        <ele>25.13</ele>
        <time>2013-02-09T14:08:15Z</time>
      </trkpt>
      <trkpt lat="47.81913" lon="-3.39226">
        <ele>28.02</ele>
        <time>2013-02-09T14:08:26Z</time>
      </trkpt>
      <trkpt lat="47.81905" lon="-3.39208">
        <ele>28.02</ele>
        <time>2013-02-09T14:08:33Z</time>
      </trkpt>
      <trkpt lat="47.81894" lon="-3.39192">
        <ele>28.02</ele>
        <time>2013-02-09T14:08:39Z</time>
      </trkpt>
      <trkpt lat="47.81864" lon="-3.39172">
        <ele>27.53</ele>
        <time>2013-02-09T14:08:47Z</time>
      </trkpt>
      <trkpt lat="47.8185" lon="-3.39162">
        <ele>27.05</ele>
        <time>2013-02-09T14:08:51Z</time>
      </trkpt>
      <trkpt lat="47.81826" lon="-3.39153">
        <ele>26.09</ele>
        <time>2013-02-09T14:08:56Z</time>
      </trkpt>
      <trkpt lat="47.81817" lon="-3.39135">
        <ele>25.61</ele>
        <time>2013-02-09T14:09:00Z</time>
      </trkpt>
      <trkpt lat="47.81816" lon="-3.39104">
        <ele>24.65</ele>
        <time>2013-02-09T14:09:07Z</time>
      </trkpt>
      <trkpt lat="47.81816" lon="-3.39102">
        <ele>24.65</ele>
        <time>2013-02-09T14:09:12Z</time>
      </trkpt>
      <trkpt lat="47.81815" lon="-3.39105">
        <ele>24.65</ele>
        <time>2013-02-09T14:09:33Z</time>
      </trkpt>
      <trkpt lat="47.81815" lon="-3.39107">
        <ele>24.65</ele>
        <time>2013-02-09T14:09:34Z</time>
      </trkpt>
      <trkpt lat="47.81816" lon="-3.3914">
        <ele>27.05</ele>
        <time>2013-02-09T14:09:45Z</time>
      </trkpt>
      <trkpt lat="47.81804" lon="-3.39159">
        <ele>28.5</ele>
        <time>2013-02-09T14:09:51Z</time>
      </trkpt>
      <trkpt lat="47.81789" lon="-3.3919">
        <ele>29.94</ele>
        <time>2013-02-09T14:10:00Z</time>
      </trkpt>
      <trkpt lat="47.81779" lon="-3.39234">
        <ele>32.82</ele>
        <time>2013-02-09T14:10:11Z</time>
      </trkpt>
      <trkpt lat="47.8177" lon="-3.39271">
        <ele>35.71</ele>
        <time>2013-02-09T14:10:20Z</time>
      </trkpt>
      <trkpt lat="47.81758" lon="-3.39318">
        <ele>39.07</ele>
        <time>2013-02-09T14:10:31Z</time>
      </trkpt>
      <trkpt lat="47.81741" lon="-3.39383">
        <ele>40.99</ele>
        <time>2013-02-09T14:10:45Z</time>
      </trkpt>
      <trkpt lat="47.81717" lon="-3.39472">
        <ele>41.95</ele>
        <time>2013-02-09T14:11:02Z</time>
      </trkpt>
      <trkpt lat="47.81704" lon="-3.39522">
        <ele>40.99</ele>
        <time>2013-02-09T14:11:12Z</time>
      </trkpt>
      <trkpt lat="47.817" lon="-3.39538">
        <ele>41.47</ele>
        <time>2013-02-09T14:11:15Z</time>
      </trkpt>
      <trkpt lat="47.81694" lon="-3.396">
        <ele>40.51</ele>
        <time>2013-02-09T14:11:25Z</time>
      </trkpt>
      <trkpt lat="47.81691" lon="-3.39627">
        <ele>39.07</ele>
        <time>2013-02-09T14:11:29Z</time>
      </trkpt>
      <trkpt lat="47.81678" lon="-3.39654">
        <ele>38.11</ele>
        <time>2013-02-09T14:11:35Z</time>
      </trkpt>
      <trkpt lat="47.81655" lon="-3.39657">
        <ele>37.63</ele>
        <time>2013-02-09T14:11:41Z</time>
      </trkpt>
      <trkpt lat="47.81622" lon="-3.39652">
        <ele>37.63</ele>
        <time>2013-02-09T14:11:50Z</time>
      </trkpt>
      <trkpt lat="47.81562" lon="-3.39626">
        <ele>39.07</ele>
        <time>2013-02-09T14:12:07Z</time>
      </trkpt>
      <trkpt lat="47.81508" lon="-3.396">
        <ele>40.03</ele>
        <time>2013-02-09T14:12:23Z</time>
      </trkpt>
      <trkpt lat="47.81447" lon="-3.39569">
        <ele>41.47</ele>
        <time>2013-02-09T14:12:41Z</time>
      </trkpt>
      <trkpt lat="47.81429" lon="-3.39558">
        <ele>42.44</ele>
        <time>2013-02-09T14:12:48Z</time>
      </trkpt>
      <trkpt lat="47.8143" lon="-3.39554">
        <ele>42.92</ele>
        <time>2013-02-09T14:12:54Z</time>
      </trkpt>
      <trkpt lat="47.81436" lon="-3.39531">
        <ele>42.92</ele>
        <time>2013-02-09T14:13:02Z</time>
      </trkpt>
      <trkpt lat="47.81446" lon="-3.39488">
        <ele>43.4</ele>
        <time>2013-02-09T14:13:11Z</time>
      </trkpt>
      <trkpt lat="47.81455" lon="-3.39448">
        <ele>41.95</ele>
        <time>2013-02-09T14:13:21Z</time>
      </trkpt>
      <trkpt lat="47.81462" lon="-3.39414">
        <ele>41.47</ele>
        <time>2013-02-09T14:13:30Z</time>
      </trkpt>
      <trkpt lat="47.81464" lon="-3.394">
        <ele>41.47</ele>
        <time>2013-02-09T14:13:34Z</time>
      </trkpt>
      <trkpt lat="47.81465" lon="-3.39383">
        <ele>41.47</ele>
        <time>2013-02-09T14:13:43Z</time>
      </trkpt>
      <trkpt lat="47.81465" lon="-3.39387">
        <ele>41.47</ele>
        <time>2013-02-09T14:14:09Z</time>
      </trkpt>
      <trkpt lat="47.81465" lon="-3.39388">
        <ele>41.47</ele>
        <time>2013-02-09T14:14:24Z</time>
      </trkpt>
      <trkpt lat="47.81465" lon="-3.39388">
        <ele>41.95</ele>
        <time>2013-02-09T14:14:33Z</time>
      </trkpt>
      <trkpt lat="47.81463" lon="-3.39407">
        <ele>42.44</ele>
        <time>2013-02-09T14:14:40Z</time>
      </trkpt>
      <trkpt lat="47.81457" lon="-3.39437">
        <ele>42.44</ele>
        <time>2013-02-09T14:14:47Z</time>
      </trkpt>
      <trkpt lat="47.81445" lon="-3.39491">
        <ele>43.4</ele>
        <time>2013-02-09T14:14:59Z</time>
      </trkpt>
      <trkpt lat="47.81433" lon="-3.3954">
        <ele>44.84</ele>
        <time>2013-02-09T14:15:08Z</time>
      </trkpt>
      <trkpt lat="47.81406" lon="-3.39632">
        <ele>43.4</ele>
        <time>2013-02-09T14:15:23Z</time>
      </trkpt>
      <trkpt lat="47.81392" lon="-3.39676">
        <ele>42.44</ele>
        <time>2013-02-09T14:15:31Z</time>
      </trkpt>
      <trkpt lat="47.81372" lon="-3.3974">
        <ele>41.47</ele>
        <time>2013-02-09T14:15:42Z</time>
      </trkpt>
      <trkpt lat="47.81351" lon="-3.39827">
        <ele>39.55</ele>
        <time>2013-02-09T14:15:55Z</time>
      </trkpt>
      <trkpt lat="47.8133" lon="-3.39949">
        <ele>40.51</ele>
        <time>2013-02-09T14:16:11Z</time>
      </trkpt>
      <trkpt lat="47.81317" lon="-3.40033">
        <ele>42.44</ele>
        <time>2013-02-09T14:16:23Z</time>
      </trkpt>
      <trkpt lat="47.81308" lon="-3.40108">
        <ele>42.92</ele>
        <time>2013-02-09T14:16:34Z</time>
      </trkpt>
      <trkpt lat="47.81307" lon="-3.40158">
        <ele>42.92</ele>
        <time>2013-02-09T14:16:41Z</time>
      </trkpt>
      <trkpt lat="47.81299" lon="-3.402">
        <ele>40.51</ele>
        <time>2013-02-09T14:16:48Z</time>
      </trkpt>
      <trkpt lat="47.81271" lon="-3.40198">
        <ele>39.07</ele>
        <time>2013-02-09T14:16:54Z</time>
      </trkpt>
      <trkpt lat="47.81243" lon="-3.40195">
        <ele>37.63</ele>
        <time>2013-02-09T14:16:58Z</time>
      </trkpt>
      <trkpt lat="47.81191" lon="-3.4018">
        <ele>32.34</ele>
        <time>2013-02-09T14:17:04Z</time>
      </trkpt>
      <trkpt lat="47.81179" lon="-3.40173">
        <ele>28.98</ele>
        <time>2013-02-09T14:17:09Z</time>
      </trkpt>
      <trkpt lat="47.81175" lon="-3.40173">
        <ele>27.53</ele>
        <time>2013-02-09T14:17:20Z</time>
      </trkpt>
      <trkpt lat="47.81158" lon="-3.40176">
        <ele>27.05</ele>
        <time>2013-02-09T14:17:23Z</time>
      </trkpt>
      <trkpt lat="47.81113" lon="-3.40177">
        <ele>23.21</ele>
        <time>2013-02-09T14:17:28Z</time>
      </trkpt>
      <trkpt lat="47.8109" lon="-3.40201">
        <ele>20.32</ele>
        <time>2013-02-09T14:17:32Z</time>
      </trkpt>
      <trkpt lat="47.81079" lon="-3.40217">
        <ele>19.36</ele>
        <time>2013-02-09T14:17:34Z</time>
      </trkpt>
      <trkpt lat="47.81052" lon="-3.40248">
        <ele>16.96</ele>
        <time>2013-02-09T14:17:40Z</time>
      </trkpt>
      <trkpt lat="47.81049" lon="-3.40256">
        <ele>13.6</ele>
        <time>2013-02-09T14:17:44Z</time>
      </trkpt>
      <trkpt lat="47.81047" lon="-3.40269">
        <ele>11.19</ele>
        <time>2013-02-09T14:17:49Z</time>
      </trkpt>
      <trkpt lat="47.81033" lon="-3.40281">
        <ele>9.27</ele>
        <time>2013-02-09T14:17:55Z</time>
      </trkpt>
      <trkpt lat="47.81019" lon="-3.40305">
        <ele>8.79</ele>
        <time>2013-02-09T14:18:02Z</time>
      </trkpt>
      <trkpt lat="47.81005" lon="-3.40322">
        <ele>8.79</ele>
        <time>2013-02-09T14:18:08Z</time>
      </trkpt>
      <trkpt lat="47.80975" lon="-3.40348">
        <ele>7.83</ele>
        <time>2013-02-09T14:18:18Z</time>
      </trkpt>
      <trkpt lat="47.80961" lon="-3.40368">
        <ele>6.87</ele>
        <time>2013-02-09T14:18:25Z</time>
      </trkpt>
      <trkpt lat="47.80942" lon="-3.40392">
        <ele>3.02</ele>
        <time>2013-02-09T14:18:33Z</time>
      </trkpt>
      <trkpt lat="47.80931" lon="-3.40412">
        <ele>2.54</ele>
        <time>2013-02-09T14:18:40Z</time>
      </trkpt>
      <trkpt lat="47.80918" lon="-3.4044">
        <ele>-0.34</ele>
        <time>2013-02-09T14:18:47Z</time>
      </trkpt>
      <trkpt lat="47.80908" lon="-3.40452">
        <ele>-0.82</ele>
        <time>2013-02-09T14:18:50Z</time>
      </trkpt>
      <trkpt lat="47.8088" lon="-3.40453">
        <ele>-2.27</ele>
        <time>2013-02-09T14:18:55Z</time>
      </trkpt>
      <trkpt lat="47.80843" lon="-3.40446">
        <ele>-1.79</ele>
        <time>2013-02-09T14:19:02Z</time>
      </trkpt>
      <trkpt lat="47.80811" lon="-3.40435">
        <ele>-1.3</ele>
        <time>2013-02-09T14:19:10Z</time>
      </trkpt>
      <trkpt lat="47.80808" lon="-3.40428">
        <ele>-1.3</ele>
        <time>2013-02-09T14:19:14Z</time>
      </trkpt>
      <trkpt lat="47.80808" lon="-3.40412">
        <ele>-1.79</ele>
        <time>2013-02-09T14:19:21Z</time>
      </trkpt>
      <trkpt lat="47.80817" lon="-3.40395">
        <ele>-2.27</ele>
        <time>2013-02-09T14:19:28Z</time>
      </trkpt>
      <trkpt lat="47.8082" lon="-3.40387">
        <ele>-2.75</ele>
        <time>2013-02-09T14:19:30Z</time>
      </trkpt>
      <trkpt lat="47.80824" lon="-3.40372">
        <ele>-2.75</ele>
        <time>2013-02-09T14:19:33Z</time>
      </trkpt>
      <trkpt lat="47.80839" lon="-3.4033">
        <ele>-5.15</ele>
        <time>2013-02-09T14:19:40Z</time>
      </trkpt>
      <trkpt lat="47.8087" lon="-3.40255">
        <ele>-9.48</ele>
        <time>2013-02-09T14:19:52Z</time>
      </trkpt>
      <trkpt lat="47.80886" lon="-3.40211">
        <ele>-10.44</ele>
        <time>2013-02-09T14:19:59Z</time>
      </trkpt>
      <trkpt lat="47.80894" lon="-3.40189">
        <ele>-8.03</ele>
        <time>2013-02-09T14:20:03Z</time>
      </trkpt>
      <trkpt lat="47.80902" lon="-3.40171">
        <ele>-6.59</ele>
        <time>2013-02-09T14:20:06Z</time>
      </trkpt>
      <trkpt lat="47.80907" lon="-3.40152">
        <ele>-6.59</ele>
        <time>2013-02-09T14:20:09Z</time>
      </trkpt>
      <trkpt lat="47.80909" lon="-3.40118">
        <ele>-8.51</ele>
        <time>2013-02-09T14:20:15Z</time>
      </trkpt>
      <trkpt lat="47.80909" lon="-3.40114">
        <ele>-7.07</ele>
        <time>2013-02-09T14:20:16Z</time>
      </trkpt>
      <trkpt lat="47.80908" lon="-3.40084">
        <ele>-6.59</ele>
        <time>2013-02-09T14:20:23Z</time>
      </trkpt>
      <trkpt lat="47.80902" lon="-3.40054">
        <ele>-6.59</ele>
        <time>2013-02-09T14:20:29Z</time>
      </trkpt>
      <trkpt lat="47.809" lon="-3.40025">
        <ele>-5.63</ele>
        <time>2013-02-09T14:20:35Z</time>
      </trkpt>
      <trkpt lat="47.809" lon="-3.40019">
        <ele>-4.67</ele>
        <time>2013-02-09T14:20:40Z</time>
      </trkpt>
      <trkpt lat="47.80896" lon="-3.40007">
        <ele>-3.23</ele>
        <time>2013-02-09T14:20:53Z</time>
      </trkpt>
      <trkpt lat="47.80886" lon="-3.39986">
        <ele>-1.3</ele>
        <time>2013-02-09T14:21:01Z</time>
      </trkpt>
      <trkpt lat="47.80879" lon="-3.39975">
        <ele>0.62</ele>
        <time>2013-02-09T14:21:07Z</time>
      </trkpt>
      <trkpt lat="47.80874" lon="-3.39971">
        <ele>1.1</ele>
        <time>2013-02-09T14:21:11Z</time>
      </trkpt>
      <trkpt lat="47.80861" lon="-3.39966">
        <ele>1.58</ele>
        <time>2013-02-09T14:21:19Z</time>
      </trkpt>
      <trkpt lat="47.80848" lon="-3.39957">
        <ele>1.1</ele>
        <time>2013-02-09T14:21:27Z</time>
      </trkpt>
      <trkpt lat="47.80829" lon="-3.39951">
        <ele>1.1</ele>
        <time>2013-02-09T14:21:36Z</time>
      </trkpt>
      <trkpt lat="47.80813" lon="-3.39938">
        <ele>1.58</ele>
        <time>2013-02-09T14:21:44Z</time>
      </trkpt>
      <trkpt lat="47.80798" lon="-3.3992">
        <ele>0.62</ele>
        <time>2013-02-09T14:21:49Z</time>
      </trkpt>
      <trkpt lat="47.8078" lon="-3.39911">
        <ele>-1.3</ele>
        <time>2013-02-09T14:21:56Z</time>
      </trkpt>
      <trkpt lat="47.80755" lon="-3.39899">
        <ele>-2.27</ele>
        <time>2013-02-09T14:22:05Z</time>
      </trkpt>
      <trkpt lat="47.8074" lon="-3.39887">
        <ele>-1.3</ele>
        <time>2013-02-09T14:22:11Z</time>
      </trkpt>
      <trkpt lat="47.80726" lon="-3.39868">
        <ele>0.14</ele>
        <time>2013-02-09T14:22:18Z</time>
      </trkpt>
      <trkpt lat="47.80719" lon="-3.39843">
        <ele>3.02</ele>
        <time>2013-02-09T14:22:25Z</time>
      </trkpt>
      <trkpt lat="47.80715" lon="-3.39814">
        <ele>6.39</ele>
        <time>2013-02-09T14:22:32Z</time>
      </trkpt>
      <trkpt lat="47.80708" lon="-3.3979">
        <ele>5.91</ele>
        <time>2013-02-09T14:22:39Z</time>
      </trkpt>
      <trkpt lat="47.80696" lon="-3.39776">
        <ele>6.39</ele>
        <time>2013-02-09T14:22:45Z</time>
      </trkpt>
      <trkpt lat="47.80684" lon="-3.3978">
        <ele>5.91</ele>
        <time>2013-02-09T14:22:50Z</time>
      </trkpt>
      <trkpt lat="47.80681" lon="-3.3978">
        <ele>5.42</ele>
        <time>2013-02-09T14:22:53Z</time>
      </trkpt>
      <trkpt lat="47.80673" lon="-3.39767">
        <ele>4.94</ele>
        <time>2013-02-09T14:23:00Z</time>
      </trkpt>
      <trkpt lat="47.80667" lon="-3.39765">
        <ele>5.91</ele>
        <time>2013-02-09T14:23:03Z</time>
      </trkpt>
      <trkpt lat="47.80652" lon="-3.3975">
        <ele>9.27</ele>
        <time>2013-02-09T14:23:12Z</time>
      </trkpt>
      <trkpt lat="47.80643" lon="-3.39728">
        <ele>12.15</ele>
        <time>2013-02-09T14:23:22Z</time>
      </trkpt>
      <trkpt lat="47.80649" lon="-3.39703">
        <ele>13.6</ele>
        <time>2013-02-09T14:23:30Z</time>
      </trkpt>
      <trkpt lat="47.80661" lon="-3.39675">
        <ele>12.15</ele>
        <time>2013-02-09T14:23:37Z</time>
      </trkpt>
      <trkpt lat="47.80665" lon="-3.39647">
        <ele>12.15</ele>
        <time>2013-02-09T14:23:43Z</time>
      </trkpt>
      <trkpt lat="47.80669" lon="-3.39615">
        <ele>11.67</ele>
        <time>2013-02-09T14:23:50Z</time>
      </trkpt>
      <trkpt lat="47.8067" lon="-3.39589">
        <ele>10.71</ele>
        <time>2013-02-09T14:23:56Z</time>
      </trkpt>
      <trkpt lat="47.80667" lon="-3.39575">
        <ele>9.75</ele>
        <time>2013-02-09T14:24:00Z</time>
      </trkpt>
      <trkpt lat="47.80661" lon="-3.39544">
        <ele>12.15</ele>
        <time>2013-02-09T14:24:07Z</time>
      </trkpt>
      <trkpt lat="47.80652" lon="-3.39532">
        <ele>14.56</ele>
        <time>2013-02-09T14:24:12Z</time>
      </trkpt>
      <trkpt lat="47.80636" lon="-3.39525">
        <ele>14.08</ele>
        <time>2013-02-09T14:24:18Z</time>
      </trkpt>
      <trkpt lat="47.8062" lon="-3.39518">
        <ele>15.04</ele>
        <time>2013-02-09T14:24:24Z</time>
      </trkpt>
      <trkpt lat="47.80618" lon="-3.39515">
        <ele>15.04</ele>
        <time>2013-02-09T14:24:32Z</time>
      </trkpt>
      <trkpt lat="47.80607" lon="-3.39512">
        <ele>15.04</ele>
        <time>2013-02-09T14:24:44Z</time>
      </trkpt>
      <trkpt lat="47.80601" lon="-3.39511">
        <ele>14.56</ele>
        <time>2013-02-09T14:24:46Z</time>
      </trkpt>
      <trkpt lat="47.80594" lon="-3.39505">
        <ele>15.04</ele>
        <time>2013-02-09T14:24:48Z</time>
      </trkpt>
      <trkpt lat="47.8058" lon="-3.39487">
        <ele>16</ele>
        <time>2013-02-09T14:24:55Z</time>
      </trkpt>
      <trkpt lat="47.80562" lon="-3.39472">
        <ele>16.96</ele>
        <time>2013-02-09T14:25:02Z</time>
      </trkpt>
      <trkpt lat="47.80545" lon="-3.3946">
        <ele>17.92</ele>
        <time>2013-02-09T14:25:08Z</time>
      </trkpt>
      <trkpt lat="47.8053" lon="-3.39455">
        <ele>16</ele>
        <time>2013-02-09T14:25:13Z</time>
      </trkpt>
      <trkpt lat="47.80506" lon="-3.39454">
        <ele>13.12</ele>
        <time>2013-02-09T14:25:20Z</time>
      </trkpt>
      <trkpt lat="47.80492" lon="-3.39453">
        <ele>14.08</ele>
        <time>2013-02-09T14:25:24Z</time>
      </trkpt>
      <trkpt lat="47.80477" lon="-3.39443">
        <ele>17.92</ele>
        <time>2013-02-09T14:25:30Z</time>
      </trkpt>
      <trkpt lat="47.8046" lon="-3.39429">
        <ele>16.96</ele>
        <time>2013-02-09T14:25:36Z</time>
      </trkpt>
      <trkpt lat="47.80438" lon="-3.39412">
        <ele>16</ele>
        <time>2013-02-09T14:25:43Z</time>
      </trkpt>
      <trkpt lat="47.80422" lon="-3.39398">
        <ele>15.52</ele>
        <time>2013-02-09T14:25:50Z</time>
      </trkpt>
      <trkpt lat="47.80409" lon="-3.39385">
        <ele>15.04</ele>
        <time>2013-02-09T14:25:55Z</time>
      </trkpt>
      <trkpt lat="47.80392" lon="-3.39368">
        <ele>14.56</ele>
        <time>2013-02-09T14:26:02Z</time>
      </trkpt>
      <trkpt lat="47.80377" lon="-3.39345">
        <ele>14.56</ele>
        <time>2013-02-09T14:26:09Z</time>
      </trkpt>
      <trkpt lat="47.80358" lon="-3.39322">
        <ele>14.08</ele>
        <time>2013-02-09T14:26:17Z</time>
      </trkpt>
      <trkpt lat="47.80341" lon="-3.39306">
        <ele>13.6</ele>
        <time>2013-02-09T14:26:24Z</time>
      </trkpt>
      <trkpt lat="47.80319" lon="-3.39292">
        <ele>14.56</ele>
        <time>2013-02-09T14:26:31Z</time>
      </trkpt>
      <trkpt lat="47.80319" lon="-3.39287">
        <ele>14.56</ele>
        <time>2013-02-09T14:26:32Z</time>
      </trkpt>
      <trkpt lat="47.80322" lon="-3.39254">
        <ele>14.56</ele>
        <time>2013-02-09T14:26:37Z</time>
      </trkpt>
      <trkpt lat="47.8033" lon="-3.39234">
        <ele>13.6</ele>
        <time>2013-02-09T14:26:42Z</time>
      </trkpt>
      <trkpt lat="47.80335" lon="-3.39209">
        <ele>11.67</ele>
        <time>2013-02-09T14:26:48Z</time>
      </trkpt>
      <trkpt lat="47.80345" lon="-3.39187">
        <ele>10.23</ele>
        <time>2013-02-09T14:26:55Z</time>
      </trkpt>
      <trkpt lat="47.80346" lon="-3.39185">
        <ele>11.67</ele>
        <time>2013-02-09T14:27:00Z</time>
      </trkpt>
      <trkpt lat="47.80347" lon="-3.39184">
        <ele>11.67</ele>
        <time>2013-02-09T14:27:39Z</time>
      </trkpt>
      <trkpt lat="47.80352" lon="-3.39168">
        <ele>11.67</ele>
        <time>2013-02-09T14:27:53Z</time>
      </trkpt>
      <trkpt lat="47.80354" lon="-3.39146">
        <ele>11.19</ele>
        <time>2013-02-09T14:27:59Z</time>
      </trkpt>
      <trkpt lat="47.80355" lon="-3.39123">
        <ele>11.19</ele>
        <time>2013-02-09T14:28:06Z</time>
      </trkpt>
      <trkpt lat="47.80353" lon="-3.39092">
        <ele>11.67</ele>
        <time>2013-02-09T14:28:13Z</time>
      </trkpt>
      <trkpt lat="47.80349" lon="-3.39076">
        <ele>12.63</ele>
        <time>2013-02-09T14:28:18Z</time>
      </trkpt>
      <trkpt lat="47.80332" lon="-3.39058">
        <ele>13.6</ele>
        <time>2013-02-09T14:28:26Z</time>
      </trkpt>
      <trkpt lat="47.80323" lon="-3.39033">
        <ele>14.08</ele>
        <time>2013-02-09T14:28:32Z</time>
      </trkpt>
      <trkpt lat="47.80323" lon="-3.39028">
        <ele>14.08</ele>
        <time>2013-02-09T14:28:33Z</time>
      </trkpt>
      <trkpt lat="47.80314" lon="-3.38986">
        <ele>14.08</ele>
        <time>2013-02-09T14:28:41Z</time>
      </trkpt>
      <trkpt lat="47.80307" lon="-3.3898">
        <ele>12.63</ele>
        <time>2013-02-09T14:28:43Z</time>
      </trkpt>
      <trkpt lat="47.80278" lon="-3.38977">
        <ele>10.71</ele>
        <time>2013-02-09T14:28:49Z</time>
      </trkpt>
      <trkpt lat="47.80262" lon="-3.38968">
        <ele>8.79</ele>
        <time>2013-02-09T14:28:52Z</time>
      </trkpt>
      <trkpt lat="47.80238" lon="-3.38922">
        <ele>3.98</ele>
        <time>2013-02-09T14:28:57Z</time>
      </trkpt>
      <trkpt lat="47.80217" lon="-3.3888">
        <ele>1.58</ele>
        <time>2013-02-09T14:29:01Z</time>
      </trkpt>
      <trkpt lat="47.802" lon="-3.38877">
        <ele>-3.71</ele>
        <time>2013-02-09T14:29:05Z</time>
      </trkpt>
      <trkpt lat="47.80192" lon="-3.38877">
        <ele>-5.15</ele>
        <time>2013-02-09T14:29:09Z</time>
      </trkpt>
      <trkpt lat="47.80184" lon="-3.3888">
        <ele>-7.07</ele>
        <time>2013-02-09T14:29:16Z</time>
      </trkpt>
      <trkpt lat="47.80175" lon="-3.38894">
        <ele>-6.59</ele>
        <time>2013-02-09T14:29:22Z</time>
      </trkpt>
      <trkpt lat="47.80164" lon="-3.38913">
        <ele>-6.11</ele>
        <time>2013-02-09T14:29:29Z</time>
      </trkpt>
      <trkpt lat="47.8015" lon="-3.38938">
        <ele>-3.23</ele>
        <time>2013-02-09T14:29:37Z</time>
      </trkpt>
      <trkpt lat="47.80144" lon="-3.38946">
        <ele>-2.75</ele>
        <time>2013-02-09T14:29:43Z</time>
      </trkpt>
      <trkpt lat="47.80144" lon="-3.3895">
        <ele>-2.27</ele>
        <time>2013-02-09T14:29:45Z</time>
      </trkpt>
      <trkpt lat="47.80146" lon="-3.38954">
        <ele>-0.82</ele>
        <time>2013-02-09T14:29:52Z</time>
      </trkpt>
      <trkpt lat="47.80146" lon="-3.38953">
        <ele>-0.82</ele>
        <time>2013-02-09T14:29:56Z</time>
      </trkpt>
      <trkpt lat="47.80139" lon="-3.38948">
        <ele>-1.3</ele>
        <time>2013-02-09T14:30:01Z</time>
      </trkpt>
      <trkpt lat="47.80129" lon="-3.38957">
        <ele>-0.82</ele>
        <time>2013-02-09T14:30:09Z</time>
      </trkpt>
      <trkpt lat="47.8011" lon="-3.38966">
        <ele>-1.79</ele>
        <time>2013-02-09T14:30:15Z</time>
      </trkpt>
      <trkpt lat="47.80067" lon="-3.38976">
        <ele>-3.23</ele>
        <time>2013-02-09T14:30:27Z</time>
      </trkpt>
      <trkpt lat="47.8006" lon="-3.38971">
        <ele>-3.23</ele>
        <time>2013-02-09T14:30:29Z</time>
      </trkpt>
      <trkpt lat="47.80048" lon="-3.38946">
        <ele>-2.75</ele>
        <time>2013-02-09T14:30:35Z</time>
      </trkpt>
      <trkpt lat="47.80034" lon="-3.38938">
        <ele>-0.82</ele>
        <time>2013-02-09T14:30:41Z</time>
      </trkpt>
      <trkpt lat="47.80028" lon="-3.38943">
        <ele>0.62</ele>
        <time>2013-02-09T14:30:45Z</time>
      </trkpt>
      <trkpt lat="47.80008" lon="-3.38962">
        <ele>3.02</ele>
        <time>2013-02-09T14:30:57Z</time>
      </trkpt>
      <trkpt lat="47.79995" lon="-3.38968">
        <ele>4.46</ele>
        <time>2013-02-09T14:31:03Z</time>
      </trkpt>
      <trkpt lat="47.7998" lon="-3.38983">
        <ele>7.83</ele>
        <time>2013-02-09T14:31:12Z</time>
      </trkpt>
      <trkpt lat="47.79969" lon="-3.38994">
        <ele>10.23</ele>
        <time>2013-02-09T14:31:18Z</time>
      </trkpt>
      <trkpt lat="47.79951" lon="-3.39">
        <ele>11.19</ele>
        <time>2013-02-09T14:31:26Z</time>
      </trkpt>
      <trkpt lat="47.79936" lon="-3.39009">
        <ele>10.71</ele>
        <time>2013-02-09T14:31:33Z</time>
      </trkpt>
      <trkpt lat="47.7992" lon="-3.39024">
        <ele>10.23</ele>
        <time>2013-02-09T14:31:43Z</time>
      </trkpt>
      <trkpt lat="47.79908" lon="-3.39026">
        <ele>9.27</ele>
        <time>2013-02-09T14:31:53Z</time>
      </trkpt>
      <trkpt lat="47.79907" lon="-3.39025">
        <ele>10.23</ele>
        <time>2013-02-09T14:32:33Z</time>
      </trkpt>
      <trkpt lat="47.79907" lon="-3.39024">
        <ele>10.23</ele>
        <time>2013-02-09T14:32:49Z</time>
      </trkpt>
      <trkpt lat="47.79886" lon="-3.39003">
        <ele>10.23</ele>
        <time>2013-02-09T14:32:59Z</time>
      </trkpt>
      <trkpt lat="47.79874" lon="-3.38997">
        <ele>9.27</ele>
        <time>2013-02-09T14:33:04Z</time>
      </trkpt>
      <trkpt lat="47.79849" lon="-3.38987">
        <ele>7.35</ele>
        <time>2013-02-09T14:33:13Z</time>
      </trkpt>
      <trkpt lat="47.79826" lon="-3.38978">
        <ele>7.35</ele>
        <time>2013-02-09T14:33:20Z</time>
      </trkpt>
      <trkpt lat="47.79806" lon="-3.38965">
        <ele>7.35</ele>
        <time>2013-02-09T14:33:27Z</time>
      </trkpt>
      <trkpt lat="47.79788" lon="-3.38951">
        <ele>8.79</ele>
        <time>2013-02-09T14:33:36Z</time>
      </trkpt>
      <trkpt lat="47.7977" lon="-3.3894">
        <ele>10.71</ele>
        <time>2013-02-09T14:33:45Z</time>
      </trkpt>
      <trkpt lat="47.79758" lon="-3.38931">
        <ele>10.23</ele>
        <time>2013-02-09T14:33:52Z</time>
      </trkpt>
      <trkpt lat="47.79748" lon="-3.38921">
        <ele>11.19</ele>
        <time>2013-02-09T14:33:59Z</time>
      </trkpt>
      <trkpt lat="47.79733" lon="-3.3891">
        <ele>11.19</ele>
        <time>2013-02-09T14:34:04Z</time>
      </trkpt>
      <trkpt lat="47.79713" lon="-3.38893">
        <ele>12.15</ele>
        <time>2013-02-09T14:34:11Z</time>
      </trkpt>
      <trkpt lat="47.79699" lon="-3.38875">
        <ele>12.15</ele>
        <time>2013-02-09T14:34:17Z</time>
      </trkpt>
      <trkpt lat="47.79689" lon="-3.38859">
        <ele>13.12</ele>
        <time>2013-02-09T14:34:22Z</time>
      </trkpt>
      <trkpt lat="47.79674" lon="-3.38826">
        <ele>12.15</ele>
        <time>2013-02-09T14:34:29Z</time>
      </trkpt>
      <trkpt lat="47.79662" lon="-3.38799">
        <ele>11.67</ele>
        <time>2013-02-09T14:34:35Z</time>
      </trkpt>
      <trkpt lat="47.79647" lon="-3.38767">
        <ele>13.6</ele>
        <time>2013-02-09T14:34:42Z</time>
      </trkpt>
      <trkpt lat="47.79634" lon="-3.38731">
        <ele>15.52</ele>
        <time>2013-02-09T14:34:48Z</time>
      </trkpt>
      <trkpt lat="47.79621" lon="-3.38685">
        <ele>16.96</ele>
        <time>2013-02-09T14:34:55Z</time>
      </trkpt>
      <trkpt lat="47.79602" lon="-3.38662">
        <ele>14.56</ele>
        <time>2013-02-09T14:35:00Z</time>
      </trkpt>
      <trkpt lat="47.79589" lon="-3.38639">
        <ele>15.52</ele>
        <time>2013-02-09T14:35:04Z</time>
      </trkpt>
      <trkpt lat="47.79581" lon="-3.38611">
        <ele>16.48</ele>
        <time>2013-02-09T14:35:08Z</time>
      </trkpt>
      <trkpt lat="47.79562" lon="-3.38579">
        <ele>14.08</ele>
        <time>2013-02-09T14:35:14Z</time>
      </trkpt>
      <trkpt lat="47.79558" lon="-3.38573">
        <ele>14.08</ele>
        <time>2013-02-09T14:35:15Z</time>
      </trkpt>
      <trkpt lat="47.79539" lon="-3.38546">
        <ele>13.6</ele>
        <time>2013-02-09T14:35:20Z</time>
      </trkpt>
      <trkpt lat="47.79528" lon="-3.38531">
        <ele>13.6</ele>
        <time>2013-02-09T14:35:23Z</time>
      </trkpt>
      <trkpt lat="47.79493" lon="-3.38486">
        <ele>14.08</ele>
        <time>2013-02-09T14:35:31Z</time>
      </trkpt>
      <trkpt lat="47.7947" lon="-3.38463">
        <ele>14.08</ele>
        <time>2013-02-09T14:35:37Z</time>
      </trkpt>
      <trkpt lat="47.79456" lon="-3.38441">
        <ele>13.6</ele>
        <time>2013-02-09T14:35:43Z</time>
      </trkpt>
      <trkpt lat="47.79448" lon="-3.38435">
        <ele>13.6</ele>
        <time>2013-02-09T14:35:50Z</time>
      </trkpt>
      <trkpt lat="47.79443" lon="-3.38436">
        <ele>13.6</ele>
        <time>2013-02-09T14:36:14Z</time>
      </trkpt>
      <trkpt lat="47.79412" lon="-3.38441">
        <ele>16.96</ele>
        <time>2013-02-09T14:36:21Z</time>
      </trkpt>
      <trkpt lat="47.79402" lon="-3.38445">
        <ele>18.88</ele>
        <time>2013-02-09T14:36:26Z</time>
      </trkpt>
      <trkpt lat="47.79387" lon="-3.38451">
        <ele>19.84</ele>
        <time>2013-02-09T14:36:35Z</time>
      </trkpt>
      <trkpt lat="47.79371" lon="-3.38453">
        <ele>20.81</ele>
        <time>2013-02-09T14:36:44Z</time>
      </trkpt>
      <trkpt lat="47.79353" lon="-3.38454">
        <ele>22.73</ele>
        <time>2013-02-09T14:36:54Z</time>
      </trkpt>
      <trkpt lat="47.79334" lon="-3.38457">
        <ele>24.17</ele>
        <time>2013-02-09T14:37:03Z</time>
      </trkpt>
      <trkpt lat="47.79321" lon="-3.38458">
        <ele>24.17</ele>
        <time>2013-02-09T14:37:08Z</time>
      </trkpt>
      <trkpt lat="47.79297" lon="-3.3846">
        <ele>23.21</ele>
        <time>2013-02-09T14:37:15Z</time>
      </trkpt>
      <trkpt lat="47.79269" lon="-3.38455">
        <ele>23.21</ele>
        <time>2013-02-09T14:37:23Z</time>
      </trkpt>
      <trkpt lat="47.79235" lon="-3.38448">
        <ele>23.69</ele>
        <time>2013-02-09T14:37:34Z</time>
      </trkpt>
      <trkpt lat="47.7921" lon="-3.3845">
        <ele>25.13</ele>
        <time>2013-02-09T14:37:43Z</time>
      </trkpt>
      <trkpt lat="47.792" lon="-3.38452">
        <ele>27.05</ele>
        <time>2013-02-09T14:37:48Z</time>
      </trkpt>
      <trkpt lat="47.79179" lon="-3.38456">
        <ele>29.46</ele>
        <time>2013-02-09T14:37:55Z</time>
      </trkpt>
      <trkpt lat="47.79163" lon="-3.38458">
        <ele>30.9</ele>
        <time>2013-02-09T14:38:01Z</time>
      </trkpt>
      <trkpt lat="47.79153" lon="-3.38453">
        <ele>31.86</ele>
        <time>2013-02-09T14:38:08Z</time>
      </trkpt>
      <trkpt lat="47.79144" lon="-3.3846">
        <ele>31.86</ele>
        <time>2013-02-09T14:38:19Z</time>
      </trkpt>
      <trkpt lat="47.79136" lon="-3.38462">
        <ele>31.38</ele>
        <time>2013-02-09T14:38:26Z</time>
      </trkpt>
      <trkpt lat="47.79125" lon="-3.38461">
        <ele>31.38</ele>
        <time>2013-02-09T14:38:36Z</time>
      </trkpt>
      <trkpt lat="47.79109" lon="-3.38464">
        <ele>31.38</ele>
        <time>2013-02-09T14:38:47Z</time>
      </trkpt>
      <trkpt lat="47.7909" lon="-3.38463">
        <ele>30.9</ele>
        <time>2013-02-09T14:38:56Z</time>
      </trkpt>
      <trkpt lat="47.79063" lon="-3.38458">
        <ele>29.46</ele>
        <time>2013-02-09T14:39:05Z</time>
      </trkpt>
      <trkpt lat="47.79031" lon="-3.38454">
        <ele>27.05</ele>
        <time>2013-02-09T14:39:11Z</time>
      </trkpt>
      <trkpt lat="47.7901" lon="-3.38467">
        <ele>25.61</ele>
        <time>2013-02-09T14:39:15Z</time>
      </trkpt>
      <trkpt lat="47.7899" lon="-3.38469">
        <ele>24.65</ele>
        <time>2013-02-09T14:39:20Z</time>
      </trkpt>
      <trkpt lat="47.7898" lon="-3.38464">
        <ele>24.17</ele>
        <time>2013-02-09T14:39:22Z</time>
      </trkpt>
      <trkpt lat="47.7894" lon="-3.3843">
        <ele>19.84</ele>
        <time>2013-02-09T14:39:29Z</time>
      </trkpt>
      <trkpt lat="47.78911" lon="-3.38404">
        <ele>16.96</ele>
        <time>2013-02-09T14:39:33Z</time>
      </trkpt>
      <trkpt lat="47.78894" lon="-3.38376">
        <ele>15.04</ele>
        <time>2013-02-09T14:39:38Z</time>
      </trkpt>
      <trkpt lat="47.78872" lon="-3.38355">
        <ele>12.15</ele>
        <time>2013-02-09T14:39:43Z</time>
      </trkpt>
      <trkpt lat="47.78854" lon="-3.38338">
        <ele>10.23</ele>
        <time>2013-02-09T14:39:46Z</time>
      </trkpt>
      <trkpt lat="47.78838" lon="-3.38337">
        <ele>8.79</ele>
        <time>2013-02-09T14:39:50Z</time>
      </trkpt>
      <trkpt lat="47.78828" lon="-3.38359">
        <ele>6.87</ele>
        <time>2013-02-09T14:39:54Z</time>
      </trkpt>
      <trkpt lat="47.78818" lon="-3.38376">
        <ele>4.94</ele>
        <time>2013-02-09T14:39:57Z</time>
      </trkpt>
      <trkpt lat="47.78804" lon="-3.38407">
        <ele>4.46</ele>
        <time>2013-02-09T14:40:03Z</time>
      </trkpt>
      <trkpt lat="47.78798" lon="-3.38435">
        <ele>3.5</ele>
        <time>2013-02-09T14:40:09Z</time>
      </trkpt>
      <trkpt lat="47.78797" lon="-3.38438">
        <ele>3.02</ele>
        <time>2013-02-09T14:40:10Z</time>
      </trkpt>
      <trkpt lat="47.78793" lon="-3.38448">
        <ele>1.58</ele>
        <time>2013-02-09T14:40:13Z</time>
      </trkpt>
      <trkpt lat="47.78777" lon="-3.38454">
        <ele>-3.23</ele>
        <time>2013-02-09T14:40:19Z</time>
      </trkpt>
      <trkpt lat="47.78756" lon="-3.38462">
        <ele>-7.07</ele>
        <time>2013-02-09T14:40:26Z</time>
      </trkpt>
      <trkpt lat="47.78749" lon="-3.38466">
        <ele>-8.03</ele>
        <time>2013-02-09T14:40:34Z</time>
      </trkpt>
      <trkpt lat="47.78748" lon="-3.38466">
        <ele>-8.51</ele>
        <time>2013-02-09T14:40:50Z</time>
      </trkpt>
      <trkpt lat="47.78728" lon="-3.3846">
        <ele>-7.07</ele>
        <time>2013-02-09T14:41:04Z</time>
      </trkpt>
      <trkpt lat="47.78725" lon="-3.38447">
        <ele>-6.11</ele>
        <time>2013-02-09T14:41:11Z</time>
      </trkpt>
      <trkpt lat="47.78725" lon="-3.38441">
        <ele>-5.63</ele>
        <time>2013-02-09T14:41:13Z</time>
      </trkpt>
      <trkpt lat="47.78727" lon="-3.38412">
        <ele>-6.11</ele>
        <time>2013-02-09T14:41:19Z</time>
      </trkpt>
      <trkpt lat="47.78722" lon="-3.38399">
        <ele>-7.55</ele>
        <time>2013-02-09T14:41:24Z</time>
      </trkpt>
      <trkpt lat="47.78712" lon="-3.38403">
        <ele>-6.59</ele>
        <time>2013-02-09T14:41:37Z</time>
      </trkpt>
      <trkpt lat="47.78708" lon="-3.38397">
        <ele>-6.59</ele>
        <time>2013-02-09T14:41:44Z</time>
      </trkpt>
      <trkpt lat="47.78699" lon="-3.38395">
        <ele>-6.11</ele>
        <time>2013-02-09T14:41:49Z</time>
      </trkpt>
      <trkpt lat="47.78684" lon="-3.38391">
        <ele>-4.67</ele>
        <time>2013-02-09T14:41:57Z</time>
      </trkpt>
      <trkpt lat="47.78682" lon="-3.38394">
        <ele>-3.71</ele>
        <time>2013-02-09T14:41:59Z</time>
      </trkpt>
      <trkpt lat="47.78689" lon="-3.38404">
        <ele>-2.75</ele>
        <time>2013-02-09T14:42:08Z</time>
      </trkpt>
      <trkpt lat="47.78695" lon="-3.38417">
        <ele>-1.79</ele>
        <time>2013-02-09T14:42:15Z</time>
      </trkpt>
      <trkpt lat="47.78696" lon="-3.38433">
        <ele>0.14</ele>
        <time>2013-02-09T14:42:22Z</time>
      </trkpt>
      <trkpt lat="47.78696" lon="-3.38434">
        <ele>0.14</ele>
        <time>2013-02-09T14:42:23Z</time>
      </trkpt>
      <trkpt lat="47.78697" lon="-3.38453">
        <ele>0.14</ele>
        <time>2013-02-09T14:42:31Z</time>
      </trkpt>
      <trkpt lat="47.78698" lon="-3.38476">
        <ele>0.14</ele>
        <time>2013-02-09T14:42:39Z</time>
      </trkpt>
      <trkpt lat="47.78699" lon="-3.38495">
        <ele>-0.34</ele>
        <time>2013-02-09T14:42:46Z</time>
      </trkpt>
      <trkpt lat="47.787" lon="-3.38513">
        <ele>-0.82</ele>
        <time>2013-02-09T14:42:52Z</time>
      </trkpt>
      <trkpt lat="47.78702" lon="-3.38534">
        <ele>-0.82</ele>
        <time>2013-02-09T14:42:59Z</time>
      </trkpt>
      <trkpt lat="47.78705" lon="-3.38548">
        <ele>-0.82</ele>
        <time>2013-02-09T14:43:05Z</time>
      </trkpt>
      <trkpt lat="47.78707" lon="-3.38571">
        <ele>-0.82</ele>
        <time>2013-02-09T14:43:13Z</time>
      </trkpt>
      <trkpt lat="47.78709" lon="-3.38585">
        <ele>-2.27</ele>
        <time>2013-02-09T14:43:19Z</time>
      </trkpt>
      <trkpt lat="47.78711" lon="-3.38608">
        <ele>-2.75</ele>
        <time>2013-02-09T14:43:27Z</time>
      </trkpt>
      <trkpt lat="47.78717" lon="-3.38637">
        <ele>-5.15</ele>
        <time>2013-02-09T14:43:36Z</time>
      </trkpt>
      <trkpt lat="47.78718" lon="-3.38656">
        <ele>-4.19</ele>
        <time>2013-02-09T14:43:44Z</time>
      </trkpt>
      <trkpt lat="47.7871" lon="-3.38671">
        <ele>4.46</ele>
        <time>2013-02-09T14:43:53Z</time>
      </trkpt>
      <trkpt lat="47.78711" lon="-3.38677">
        <ele>5.42</ele>
        <time>2013-02-09T14:43:57Z</time>
      </trkpt>
      <trkpt lat="47.78708" lon="-3.38692">
        <ele>9.75</ele>
        <time>2013-02-09T14:44:05Z</time>
      </trkpt>
      <trkpt lat="47.78704" lon="-3.38701">
        <ele>11.19</ele>
        <time>2013-02-09T14:44:12Z</time>
      </trkpt>
      <trkpt lat="47.78704" lon="-3.38717">
        <ele>13.12</ele>
        <time>2013-02-09T14:44:21Z</time>
      </trkpt>
      <trkpt lat="47.78703" lon="-3.38732">
        <ele>15.04</ele>
        <time>2013-02-09T14:44:29Z</time>
      </trkpt>
      <trkpt lat="47.78701" lon="-3.38745">
        <ele>16.96</ele>
        <time>2013-02-09T14:44:38Z</time>
      </trkpt>
      <trkpt lat="47.78698" lon="-3.38763">
        <ele>19.36</ele>
        <time>2013-02-09T14:44:49Z</time>
      </trkpt>
      <trkpt lat="47.78695" lon="-3.38782">
        <ele>21.29</ele>
        <time>2013-02-09T14:44:59Z</time>
      </trkpt>
      <trkpt lat="47.7869" lon="-3.38781">
        <ele>21.29</ele>
        <time>2013-02-09T14:45:02Z</time>
      </trkpt>
      <trkpt lat="47.78676" lon="-3.38781">
        <ele>21.29</ele>
        <time>2013-02-09T14:45:08Z</time>
      </trkpt>
      <trkpt lat="47.78668" lon="-3.38777">
        <ele>21.77</ele>
        <time>2013-02-09T14:45:14Z</time>
      </trkpt>
      <trkpt lat="47.78654" lon="-3.3877">
        <ele>22.25</ele>
        <time>2013-02-09T14:45:23Z</time>
      </trkpt>
      <trkpt lat="47.78638" lon="-3.38762">
        <ele>23.69</ele>
        <time>2013-02-09T14:45:31Z</time>
      </trkpt>
      <trkpt lat="47.78623" lon="-3.38751">
        <ele>24.65</ele>
        <time>2013-02-09T14:45:38Z</time>
      </trkpt>
      <trkpt lat="47.78601" lon="-3.38734">
        <ele>24.65</ele>
        <time>2013-02-09T14:45:47Z</time>
      </trkpt>
      <trkpt lat="47.7858" lon="-3.38712">
        <ele>25.13</ele>
        <time>2013-02-09T14:45:54Z</time>
      </trkpt>
      <trkpt lat="47.78551" lon="-3.38679">
        <ele>24.65</ele>
        <time>2013-02-09T14:46:03Z</time>
      </trkpt>
      <trkpt lat="47.78548" lon="-3.38675">
        <ele>24.17</ele>
        <time>2013-02-09T14:46:04Z</time>
      </trkpt>
      <trkpt lat="47.78527" lon="-3.3866">
        <ele>21.29</ele>
        <time>2013-02-09T14:46:09Z</time>
      </trkpt>
      <trkpt lat="47.78502" lon="-3.38651">
        <ele>18.88</ele>
        <time>2013-02-09T14:46:15Z</time>
      </trkpt>
      <trkpt lat="47.78486" lon="-3.38643">
        <ele>16</ele>
        <time>2013-02-09T14:46:22Z</time>
      </trkpt>
      <trkpt lat="47.78479" lon="-3.38641">
        <ele>16.48</ele>
        <time>2013-02-09T14:46:27Z</time>
      </trkpt>
      <trkpt lat="47.78471" lon="-3.38653">
        <ele>16.48</ele>
        <time>2013-02-09T14:46:34Z</time>
      </trkpt>
      <trkpt lat="47.78463" lon="-3.38659">
        <ele>16.48</ele>
        <time>2013-02-09T14:46:39Z</time>
      </trkpt>
      <trkpt lat="47.78441" lon="-3.38659">
        <ele>17.44</ele>
        <time>2013-02-09T14:46:49Z</time>
      </trkpt>
      <trkpt lat="47.7842" lon="-3.38657">
        <ele>17.92</ele>
        <time>2013-02-09T14:46:55Z</time>
      </trkpt>
      <trkpt lat="47.78411" lon="-3.38666">
        <ele>17.44</ele>
        <time>2013-02-09T14:47:01Z</time>
      </trkpt>
      <trkpt lat="47.7841" lon="-3.38676">
        <ele>17.92</ele>
        <time>2013-02-09T14:47:04Z</time>
      </trkpt>
      <trkpt lat="47.78408" lon="-3.38708">
        <ele>20.32</ele>
        <time>2013-02-09T14:47:10Z</time>
      </trkpt>
      <trkpt lat="47.78406" lon="-3.38741">
        <ele>23.21</ele>
        <time>2013-02-09T14:47:17Z</time>
      </trkpt>
      <trkpt lat="47.78408" lon="-3.38768">
        <ele>24.17</ele>
        <time>2013-02-09T14:47:23Z</time>
      </trkpt>
      <trkpt lat="47.78421" lon="-3.38815">
        <ele>24.65</ele>
        <time>2013-02-09T14:47:32Z</time>
      </trkpt>
      <trkpt lat="47.78424" lon="-3.38846">
        <ele>23.21</ele>
        <time>2013-02-09T14:47:38Z</time>
      </trkpt>
      <trkpt lat="47.78423" lon="-3.38896">
        <ele>18.88</ele>
        <time>2013-02-09T14:47:46Z</time>
      </trkpt>
      <trkpt lat="47.78425" lon="-3.38924">
        <ele>16.96</ele>
        <time>2013-02-09T14:47:52Z</time>
      </trkpt>
      <trkpt lat="47.78433" lon="-3.38942">
        <ele>15.04</ele>
        <time>2013-02-09T14:47:56Z</time>
      </trkpt>
      <trkpt lat="47.78437" lon="-3.38965">
        <ele>12.63</ele>
        <time>2013-02-09T14:48:00Z</time>
      </trkpt>
      <trkpt lat="47.78438" lon="-3.38969">
        <ele>14.08</ele>
        <time>2013-02-09T14:48:04Z</time>
      </trkpt>
      <trkpt lat="47.78436" lon="-3.38982">
        <ele>15.04</ele>
        <time>2013-02-09T14:48:22Z</time>
      </trkpt>
      <trkpt lat="47.78426" lon="-3.3901">
        <ele>17.44</ele>
        <time>2013-02-09T14:48:30Z</time>
      </trkpt>
      <trkpt lat="47.78434" lon="-3.39027">
        <ele>18.88</ele>
        <time>2013-02-09T14:48:37Z</time>
      </trkpt>
      <trkpt lat="47.78437" lon="-3.39043">
        <ele>19.36</ele>
        <time>2013-02-09T14:48:45Z</time>
      </trkpt>
      <trkpt lat="47.78438" lon="-3.39056">
        <ele>19.36</ele>
        <time>2013-02-09T14:48:51Z</time>
      </trkpt>
      <trkpt lat="47.78441" lon="-3.39065">
        <ele>19.84</ele>
        <time>2013-02-09T14:49:02Z</time>
      </trkpt>
      <trkpt lat="47.78443" lon="-3.39068">
        <ele>19.84</ele>
        <time>2013-02-09T14:49:04Z</time>
      </trkpt>
      <trkpt lat="47.78451" lon="-3.39088">
        <ele>20.81</ele>
        <time>2013-02-09T14:49:13Z</time>
      </trkpt>
      <trkpt lat="47.78466" lon="-3.39085">
        <ele>21.77</ele>
        <time>2013-02-09T14:49:24Z</time>
      </trkpt>
      <trkpt lat="47.78472" lon="-3.39082">
        <ele>22.73</ele>
        <time>2013-02-09T14:49:31Z</time>
      </trkpt>
      <trkpt lat="47.7847" lon="-3.39083">
        <ele>22.73</ele>
        <time>2013-02-09T14:49:51Z</time>
      </trkpt>
      <trkpt lat="47.78455" lon="-3.39087">
        <ele>23.21</ele>
        <time>2013-02-09T14:49:57Z</time>
      </trkpt>
      <trkpt lat="47.78446" lon="-3.39074">
        <ele>20.81</ele>
        <time>2013-02-09T14:50:02Z</time>
      </trkpt>
      <trkpt lat="47.78438" lon="-3.39056">
        <ele>18.4</ele>
        <time>2013-02-09T14:50:10Z</time>
      </trkpt>
      <trkpt lat="47.78442" lon="-3.39038">
        <ele>17.92</ele>
        <time>2013-02-09T14:50:17Z</time>
      </trkpt>
      <trkpt lat="47.78446" lon="-3.39016">
        <ele>14.56</ele>
        <time>2013-02-09T14:50:24Z</time>
      </trkpt>
      <trkpt lat="47.78456" lon="-3.38999">
        <ele>12.63</ele>
        <time>2013-02-09T14:50:31Z</time>
      </trkpt>
      <trkpt lat="47.78462" lon="-3.39001">
        <ele>12.15</ele>
        <time>2013-02-09T14:50:37Z</time>
      </trkpt>
      <trkpt lat="47.78462" lon="-3.38999">
        <ele>12.63</ele>
        <time>2013-02-09T14:50:50Z</time>
      </trkpt>
      <trkpt lat="47.78461" lon="-3.39">
        <ele>12.63</ele>
        <time>2013-02-09T14:50:51Z</time>
      </trkpt>
      <trkpt lat="47.78451" lon="-3.39017">
        <ele>12.63</ele>
        <time>2013-02-09T14:50:59Z</time>
      </trkpt>
      <trkpt lat="47.78439" lon="-3.39025">
        <ele>13.6</ele>
        <time>2013-02-09T14:51:07Z</time>
      </trkpt>
      <trkpt lat="47.78421" lon="-3.39038">
        <ele>11.19</ele>
        <time>2013-02-09T14:51:13Z</time>
      </trkpt>
      <trkpt lat="47.78417" lon="-3.39047">
        <ele>10.23</ele>
        <time>2013-02-09T14:51:15Z</time>
      </trkpt>
      <trkpt lat="47.78409" lon="-3.39091">
        <ele>4.94</ele>
        <time>2013-02-09T14:51:21Z</time>
      </trkpt>
      <trkpt lat="47.78407" lon="-3.39128">
        <ele>5.91</ele>
        <time>2013-02-09T14:51:26Z</time>
      </trkpt>
      <trkpt lat="47.78406" lon="-3.39136">
        <ele>7.83</ele>
        <time>2013-02-09T14:51:31Z</time>
      </trkpt>
      <trkpt lat="47.78407" lon="-3.3915">
        <ele>8.79</ele>
        <time>2013-02-09T14:51:50Z</time>
      </trkpt>
      <trkpt lat="47.78414" lon="-3.39191">
        <ele>9.75</ele>
        <time>2013-02-09T14:52:00Z</time>
      </trkpt>
      <trkpt lat="47.7843" lon="-3.3921">
        <ele>10.71</ele>
        <time>2013-02-09T14:52:06Z</time>
      </trkpt>
      <trkpt lat="47.78449" lon="-3.39241">
        <ele>8.79</ele>
        <time>2013-02-09T14:52:11Z</time>
      </trkpt>
      <trkpt lat="47.78466" lon="-3.39264">
        <ele>5.42</ele>
        <time>2013-02-09T14:52:14Z</time>
      </trkpt>
      <trkpt lat="47.78481" lon="-3.39302">
        <ele>3.98</ele>
        <time>2013-02-09T14:52:18Z</time>
      </trkpt>
      <trkpt lat="47.78496" lon="-3.39353">
        <ele>3.5</ele>
        <time>2013-02-09T14:52:26Z</time>
      </trkpt>
      <trkpt lat="47.78503" lon="-3.39368">
        <ele>3.5</ele>
        <time>2013-02-09T14:52:32Z</time>
      </trkpt>
      <trkpt lat="47.7852" lon="-3.39397">
        <ele>2.54</ele>
        <time>2013-02-09T14:52:40Z</time>
      </trkpt>
      <trkpt lat="47.78539" lon="-3.39432">
        <ele>3.5</ele>
        <time>2013-02-09T14:52:46Z</time>
      </trkpt>
      <trkpt lat="47.78551" lon="-3.39457">
        <ele>4.46</ele>
        <time>2013-02-09T14:52:50Z</time>
      </trkpt>
      <trkpt lat="47.78568" lon="-3.39489">
        <ele>4.46</ele>
        <time>2013-02-09T14:52:57Z</time>
      </trkpt>
      <trkpt lat="47.7858" lon="-3.39502">
        <ele>3.98</ele>
        <time>2013-02-09T14:53:05Z</time>
      </trkpt>
      <trkpt lat="47.78581" lon="-3.39511">
        <ele>5.42</ele>
        <time>2013-02-09T14:53:09Z</time>
      </trkpt>
      <trkpt lat="47.78556" lon="-3.3952">
        <ele>3.98</ele>
        <time>2013-02-09T14:53:18Z</time>
      </trkpt>
      <trkpt lat="47.78539" lon="-3.39528">
        <ele>3.02</ele>
        <time>2013-02-09T14:53:23Z</time>
      </trkpt>
      <trkpt lat="47.7852" lon="-3.3953">
        <ele>5.91</ele>
        <time>2013-02-09T14:53:30Z</time>
      </trkpt>
      <trkpt lat="47.78513" lon="-3.39534">
        <ele>9.27</ele>
        <time>2013-02-09T14:53:35Z</time>
      </trkpt>
      <trkpt lat="47.78503" lon="-3.3952">
        <ele>12.63</ele>
        <time>2013-02-09T14:53:43Z</time>
      </trkpt>
      <trkpt lat="47.78492" lon="-3.39508">
        <ele>16</ele>
        <time>2013-02-09T14:53:51Z</time>
      </trkpt>
      <trkpt lat="47.78478" lon="-3.395">
        <ele>22.25</ele>
        <time>2013-02-09T14:54:00Z</time>
      </trkpt>
      <trkpt lat="47.78466" lon="-3.39506">
        <ele>25.61</ele>
        <time>2013-02-09T14:54:08Z</time>
      </trkpt>
      <trkpt lat="47.78466" lon="-3.39509">
        <ele>26.57</ele>
        <time>2013-02-09T14:54:17Z</time>
      </trkpt>
      <trkpt lat="47.78466" lon="-3.3951">
        <ele>26.57</ele>
        <time>2013-02-09T14:54:18Z</time>
      </trkpt>
      <trkpt lat="47.78471" lon="-3.39535">
        <ele>26.09</ele>
        <time>2013-02-09T14:54:28Z</time>
      </trkpt>
      <trkpt lat="47.78475" lon="-3.3957">
        <ele>27.05</ele>
        <time>2013-02-09T14:54:39Z</time>
      </trkpt>
      <trkpt lat="47.7848" lon="-3.39598">
        <ele>26.09</ele>
        <time>2013-02-09T14:54:48Z</time>
      </trkpt>
      <trkpt lat="47.78479" lon="-3.39607">
        <ele>24.65</ele>
        <time>2013-02-09T14:54:54Z</time>
      </trkpt>
      <trkpt lat="47.78478" lon="-3.39607">
        <ele>25.13</ele>
        <time>2013-02-09T14:55:04Z</time>
      </trkpt>
      <trkpt lat="47.78478" lon="-3.39597">
        <ele>26.09</ele>
        <time>2013-02-09T14:55:10Z</time>
      </trkpt>
      <trkpt lat="47.78475" lon="-3.39582">
        <ele>27.53</ele>
        <time>2013-02-09T14:55:19Z</time>
      </trkpt>
      <trkpt lat="47.78474" lon="-3.39573">
        <ele>28.02</ele>
        <time>2013-02-09T14:55:27Z</time>
      </trkpt>
      <trkpt lat="47.78473" lon="-3.39571">
        <ele>28.02</ele>
        <time>2013-02-09T14:55:28Z</time>
      </trkpt>
      <trkpt lat="47.7847" lon="-3.39543">
        <ele>28.02</ele>
        <time>2013-02-09T14:55:36Z</time>
      </trkpt>
      <trkpt lat="47.78465" lon="-3.39513">
        <ele>26.57</ele>
        <time>2013-02-09T14:55:44Z</time>
      </trkpt>
      <trkpt lat="47.78447" lon="-3.39518">
        <ele>25.13</ele>
        <time>2013-02-09T14:55:51Z</time>
      </trkpt>
      <trkpt lat="47.78424" lon="-3.3953">
        <ele>24.17</ele>
        <time>2013-02-09T14:56:00Z</time>
      </trkpt>
      <trkpt lat="47.78419" lon="-3.39528">
        <ele>25.13</ele>
        <time>2013-02-09T14:56:02Z</time>
      </trkpt>
      <trkpt lat="47.78392" lon="-3.39524">
        <ele>29.46</ele>
        <time>2013-02-09T14:56:11Z</time>
      </trkpt>
      <trkpt lat="47.78376" lon="-3.39535">
        <ele>30.42</ele>
        <time>2013-02-09T14:56:20Z</time>
      </trkpt>
      <trkpt lat="47.78376" lon="-3.3955">
        <ele>30.9</ele>
        <time>2013-02-09T14:56:26Z</time>
      </trkpt>
      <trkpt lat="47.78373" lon="-3.39568">
        <ele>31.86</ele>
        <time>2013-02-09T14:56:35Z</time>
      </trkpt>
      <trkpt lat="47.78371" lon="-3.39591">
        <ele>32.34</ele>
        <time>2013-02-09T14:56:42Z</time>
      </trkpt>
      <trkpt lat="47.78365" lon="-3.39604">
        <ele>34.26</ele>
        <time>2013-02-09T14:56:49Z</time>
      </trkpt>
      <trkpt lat="47.78358" lon="-3.39619">
        <ele>36.19</ele>
        <time>2013-02-09T14:56:59Z</time>
      </trkpt>
      <trkpt lat="47.7836" lon="-3.39623">
        <ele>36.19</ele>
        <time>2013-02-09T14:57:02Z</time>
      </trkpt>
      <trkpt lat="47.78372" lon="-3.3964">
        <ele>37.63</ele>
        <time>2013-02-09T14:57:12Z</time>
      </trkpt>
      <trkpt lat="47.7837" lon="-3.39671">
        <ele>38.59</ele>
        <time>2013-02-09T14:57:23Z</time>
      </trkpt>
      <trkpt lat="47.78371" lon="-3.39709">
        <ele>40.99</ele>
        <time>2013-02-09T14:57:33Z</time>
      </trkpt>
      <trkpt lat="47.78378" lon="-3.39743">
        <ele>41.95</ele>
        <time>2013-02-09T14:57:42Z</time>
      </trkpt>
      <trkpt lat="47.78386" lon="-3.39767">
        <ele>42.44</ele>
        <time>2013-02-09T14:57:50Z</time>
      </trkpt>
      <trkpt lat="47.78401" lon="-3.39784">
        <ele>40.51</ele>
        <time>2013-02-09T14:57:59Z</time>
      </trkpt>
      <trkpt lat="47.78418" lon="-3.39801">
        <ele>36.19</ele>
        <time>2013-02-09T14:58:05Z</time>
      </trkpt>
      <trkpt lat="47.78432" lon="-3.39827">
        <ele>32.82</ele>
        <time>2013-02-09T14:58:09Z</time>
      </trkpt>
      <trkpt lat="47.78455" lon="-3.39832">
        <ele>28.5</ele>
        <time>2013-02-09T14:58:13Z</time>
      </trkpt>
      <trkpt lat="47.78492" lon="-3.39826">
        <ele>23.69</ele>
        <time>2013-02-09T14:58:18Z</time>
      </trkpt>
      <trkpt lat="47.78499" lon="-3.39825">
        <ele>23.21</ele>
        <time>2013-02-09T14:58:19Z</time>
      </trkpt>
      <trkpt lat="47.78528" lon="-3.39829">
        <ele>22.25</ele>
        <time>2013-02-09T14:58:23Z</time>
      </trkpt>
      <trkpt lat="47.78548" lon="-3.39833">
        <ele>19.84</ele>
        <time>2013-02-09T14:58:26Z</time>
      </trkpt>
      <trkpt lat="47.78562" lon="-3.39844">
        <ele>16.96</ele>
        <time>2013-02-09T14:58:30Z</time>
      </trkpt>
      <trkpt lat="47.78562" lon="-3.39855">
        <ele>14.08</ele>
        <time>2013-02-09T14:58:32Z</time>
      </trkpt>
      <trkpt lat="47.78559" lon="-3.39866">
        <ele>13.12</ele>
        <time>2013-02-09T14:58:34Z</time>
      </trkpt>
      <trkpt lat="47.78556" lon="-3.39892">
        <ele>14.08</ele>
        <time>2013-02-09T14:58:38Z</time>
      </trkpt>
      <trkpt lat="47.78562" lon="-3.39945">
        <ele>14.08</ele>
        <time>2013-02-09T14:58:47Z</time>
      </trkpt>
      <trkpt lat="47.78563" lon="-3.3997">
        <ele>12.63</ele>
        <time>2013-02-09T14:58:53Z</time>
      </trkpt>
      <trkpt lat="47.78563" lon="-3.39999">
        <ele>14.56</ele>
        <time>2013-02-09T14:59:01Z</time>
      </trkpt>
      <trkpt lat="47.78564" lon="-3.40026">
        <ele>16.96</ele>
        <time>2013-02-09T14:59:10Z</time>
      </trkpt>
      <trkpt lat="47.78564" lon="-3.40042">
        <ele>18.88</ele>
        <time>2013-02-09T14:59:15Z</time>
      </trkpt>
      <trkpt lat="47.78571" lon="-3.40053">
        <ele>19.84</ele>
        <time>2013-02-09T14:59:22Z</time>
      </trkpt>
      <trkpt lat="47.78583" lon="-3.40057">
        <ele>20.81</ele>
        <time>2013-02-09T14:59:26Z</time>
      </trkpt>
      <trkpt lat="47.78599" lon="-3.40052">
        <ele>25.13</ele>
        <time>2013-02-09T14:59:34Z</time>
      </trkpt>
      <trkpt lat="47.78604" lon="-3.40056">
        <ele>27.53</ele>
        <time>2013-02-09T14:59:39Z</time>
      </trkpt>
      <trkpt lat="47.78613" lon="-3.40084">
        <ele>30.9</ele>
        <time>2013-02-09T14:59:48Z</time>
      </trkpt>
      <trkpt lat="47.78617" lon="-3.401">
        <ele>33.3</ele>
        <time>2013-02-09T14:59:55Z</time>
      </trkpt>
      <trkpt lat="47.78618" lon="-3.40099">
        <ele>34.26</ele>
        <time>2013-02-09T15:00:02Z</time>
      </trkpt>
      <trkpt lat="47.78624" lon="-3.40114">
        <ele>33.3</ele>
        <time>2013-02-09T15:01:41Z</time>
      </trkpt>
      <trkpt lat="47.78634" lon="-3.40144">
        <ele>30.42</ele>
        <time>2013-02-09T15:01:49Z</time>
      </trkpt>
      <trkpt lat="47.78643" lon="-3.40166">
        <ele>28.98</ele>
        <time>2013-02-09T15:01:56Z</time>
      </trkpt>
      <trkpt lat="47.78649" lon="-3.40201">
        <ele>24.65</ele>
        <time>2013-02-09T15:02:05Z</time>
      </trkpt>
      <trkpt lat="47.78658" lon="-3.4024">
        <ele>18.88</ele>
        <time>2013-02-09T15:02:12Z</time>
      </trkpt>
      <trkpt lat="47.78661" lon="-3.40253">
        <ele>16.96</ele>
        <time>2013-02-09T15:02:14Z</time>
      </trkpt>
      <trkpt lat="47.78668" lon="-3.40288">
        <ele>14.08</ele>
        <time>2013-02-09T15:02:19Z</time>
      </trkpt>
      <trkpt lat="47.78676" lon="-3.40338">
        <ele>8.79</ele>
        <time>2013-02-09T15:02:27Z</time>
      </trkpt>
      <trkpt lat="47.78677" lon="-3.40365">
        <ele>6.87</ele>
        <time>2013-02-09T15:02:31Z</time>
      </trkpt>
      <trkpt lat="47.78683" lon="-3.40384">
        <ele>4.94</ele>
        <time>2013-02-09T15:02:34Z</time>
      </trkpt>
      <trkpt lat="47.78686" lon="-3.40397">
        <ele>3.98</ele>
        <time>2013-02-09T15:02:36Z</time>
      </trkpt>
      <trkpt lat="47.78688" lon="-3.40416">
        <ele>3.02</ele>
        <time>2013-02-09T15:02:39Z</time>
      </trkpt>
      <trkpt lat="47.78696" lon="-3.40433">
        <ele>3.5</ele>
        <time>2013-02-09T15:02:44Z</time>
      </trkpt>
      <trkpt lat="47.78701" lon="-3.40433">
        <ele>3.5</ele>
        <time>2013-02-09T15:02:46Z</time>
      </trkpt>
      <trkpt lat="47.78719" lon="-3.40451">
        <ele>9.27</ele>
        <time>2013-02-09T15:02:53Z</time>
      </trkpt>
      <trkpt lat="47.78728" lon="-3.40456">
        <ele>13.6</ele>
        <time>2013-02-09T15:02:57Z</time>
      </trkpt>
      <trkpt lat="47.78748" lon="-3.40445">
        <ele>16.96</ele>
        <time>2013-02-09T15:03:05Z</time>
      </trkpt>
      <trkpt lat="47.78762" lon="-3.40428">
        <ele>19.36</ele>
        <time>2013-02-09T15:03:12Z</time>
      </trkpt>
      <trkpt lat="47.78773" lon="-3.40415">
        <ele>24.17</ele>
        <time>2013-02-09T15:03:19Z</time>
      </trkpt>
      <trkpt lat="47.78777" lon="-3.40412">
        <ele>27.05</ele>
        <time>2013-02-09T15:03:26Z</time>
      </trkpt>
      <trkpt lat="47.78789" lon="-3.40407">
        <ele>28.5</ele>
        <time>2013-02-09T15:03:33Z</time>
      </trkpt>
      <trkpt lat="47.78794" lon="-3.40407">
        <ele>28.98</ele>
        <time>2013-02-09T15:03:39Z</time>
      </trkpt>
      <trkpt lat="47.78803" lon="-3.40406">
        <ele>29.46</ele>
        <time>2013-02-09T15:03:47Z</time>
      </trkpt>
      <trkpt lat="47.78812" lon="-3.40403">
        <ele>29.46</ele>
        <time>2013-02-09T15:03:55Z</time>
      </trkpt>
      <trkpt lat="47.78816" lon="-3.40404">
        <ele>29.94</ele>
        <time>2013-02-09T15:04:07Z</time>
      </trkpt>
      <trkpt lat="47.78819" lon="-3.40401">
        <ele>30.42</ele>
        <time>2013-02-09T15:04:12Z</time>
      </trkpt>
      <trkpt lat="47.78821" lon="-3.40401">
        <ele>30.9</ele>
        <time>2013-02-09T15:04:26Z</time>
      </trkpt>
      <trkpt lat="47.78829" lon="-3.40397">
        <ele>31.38</ele>
        <time>2013-02-09T15:04:33Z</time>
      </trkpt>
      <trkpt lat="47.78842" lon="-3.40395">
        <ele>32.34</ele>
        <time>2013-02-09T15:04:39Z</time>
      </trkpt>
      <trkpt lat="47.78851" lon="-3.40396">
        <ele>32.34</ele>
        <time>2013-02-09T15:04:44Z</time>
      </trkpt>
      <trkpt lat="47.78862" lon="-3.40401">
        <ele>33.3</ele>
        <time>2013-02-09T15:04:51Z</time>
      </trkpt>
      <trkpt lat="47.78883" lon="-3.40404">
        <ele>34.26</ele>
        <time>2013-02-09T15:04:59Z</time>
      </trkpt>
      <trkpt lat="47.78897" lon="-3.40401">
        <ele>34.26</ele>
        <time>2013-02-09T15:05:04Z</time>
      </trkpt>
      <trkpt lat="47.789" lon="-3.404">
        <ele>34.74</ele>
        <time>2013-02-09T15:05:05Z</time>
      </trkpt>
      <trkpt lat="47.78914" lon="-3.40408">
        <ele>32.82</ele>
        <time>2013-02-09T15:05:12Z</time>
      </trkpt>
      <trkpt lat="47.78924" lon="-3.40435">
        <ele>29.46</ele>
        <time>2013-02-09T15:05:18Z</time>
      </trkpt>
      <trkpt lat="47.78925" lon="-3.40451">
        <ele>28.02</ele>
        <time>2013-02-09T15:05:20Z</time>
      </trkpt>
      <trkpt lat="47.78921" lon="-3.40488">
        <ele>25.13</ele>
        <time>2013-02-09T15:05:24Z</time>
      </trkpt>
      <trkpt lat="47.78929" lon="-3.40546">
        <ele>22.73</ele>
        <time>2013-02-09T15:05:30Z</time>
      </trkpt>
      <trkpt lat="47.78931" lon="-3.40576">
        <ele>22.25</ele>
        <time>2013-02-09T15:05:33Z</time>
      </trkpt>
      <trkpt lat="47.78928" lon="-3.4064">
        <ele>19.84</ele>
        <time>2013-02-09T15:05:41Z</time>
      </trkpt>
      <trkpt lat="47.78924" lon="-3.40674">
        <ele>20.32</ele>
        <time>2013-02-09T15:05:47Z</time>
      </trkpt>
      <trkpt lat="47.78924" lon="-3.4068">
        <ele>20.32</ele>
        <time>2013-02-09T15:05:48Z</time>
      </trkpt>
      <trkpt lat="47.78919" lon="-3.40703">
        <ele>20.32</ele>
        <time>2013-02-09T15:05:52Z</time>
      </trkpt>
      <trkpt lat="47.78918" lon="-3.40729">
        <ele>19.84</ele>
        <time>2013-02-09T15:05:56Z</time>
      </trkpt>
      <trkpt lat="47.78925" lon="-3.40777">
        <ele>20.81</ele>
        <time>2013-02-09T15:06:04Z</time>
      </trkpt>
      <trkpt lat="47.78927" lon="-3.40795">
        <ele>19.84</ele>
        <time>2013-02-09T15:06:07Z</time>
      </trkpt>
      <trkpt lat="47.78928" lon="-3.40831">
        <ele>19.36</ele>
        <time>2013-02-09T15:06:15Z</time>
      </trkpt>
      <trkpt lat="47.78933" lon="-3.40852">
        <ele>20.81</ele>
        <time>2013-02-09T15:06:21Z</time>
      </trkpt>
      <trkpt lat="47.78936" lon="-3.40859">
        <ele>22.25</ele>
        <time>2013-02-09T15:06:24Z</time>
      </trkpt>
      <trkpt lat="47.78941" lon="-3.40874">
        <ele>27.53</ele>
        <time>2013-02-09T15:06:33Z</time>
      </trkpt>
      <trkpt lat="47.78947" lon="-3.40896">
        <ele>29.94</ele>
        <time>2013-02-09T15:06:39Z</time>
      </trkpt>
      <trkpt lat="47.78948" lon="-3.40906">
        <ele>29.94</ele>
        <time>2013-02-09T15:06:41Z</time>
      </trkpt>
      <trkpt lat="47.78943" lon="-3.40943">
        <ele>29.46</ele>
        <time>2013-02-09T15:06:50Z</time>
      </trkpt>
      <trkpt lat="47.78943" lon="-3.40948">
        <ele>29.46</ele>
        <time>2013-02-09T15:06:55Z</time>
      </trkpt>
      <trkpt lat="47.78946" lon="-3.40948">
        <ele>30.42</ele>
        <time>2013-02-09T15:06:57Z</time>
      </trkpt>
      <trkpt lat="47.78962" lon="-3.40952">
        <ele>32.82</ele>
        <time>2013-02-09T15:07:02Z</time>
      </trkpt>
      <trkpt lat="47.78979" lon="-3.40945">
        <ele>35.23</ele>
        <time>2013-02-09T15:07:08Z</time>
      </trkpt>
      <trkpt lat="47.79004" lon="-3.40948">
        <ele>36.67</ele>
        <time>2013-02-09T15:07:17Z</time>
      </trkpt>
      <trkpt lat="47.79028" lon="-3.4096">
        <ele>38.11</ele>
        <time>2013-02-09T15:07:25Z</time>
      </trkpt>
      <trkpt lat="47.79061" lon="-3.40973">
        <ele>38.59</ele>
        <time>2013-02-09T15:07:35Z</time>
      </trkpt>
      <trkpt lat="47.79096" lon="-3.40994">
        <ele>40.03</ele>
        <time>2013-02-09T15:07:46Z</time>
      </trkpt>
      <trkpt lat="47.79125" lon="-3.41025">
        <ele>42.44</ele>
        <time>2013-02-09T15:07:57Z</time>
      </trkpt>
      <trkpt lat="47.79131" lon="-3.41054">
        <ele>43.88</ele>
        <time>2013-02-09T15:08:04Z</time>
      </trkpt>
      <trkpt lat="47.79136" lon="-3.41081">
        <ele>45.32</ele>
        <time>2013-02-09T15:08:12Z</time>
      </trkpt>
      <trkpt lat="47.79138" lon="-3.41094">
        <ele>46.76</ele>
        <time>2013-02-09T15:08:22Z</time>
      </trkpt>
      <trkpt lat="47.79141" lon="-3.41086">
        <ele>46.28</ele>
        <time>2013-02-09T15:08:30Z</time>
      </trkpt>
      <trkpt lat="47.79132" lon="-3.41108">
        <ele>45.32</ele>
        <time>2013-02-09T15:08:39Z</time>
      </trkpt>
      <trkpt lat="47.7912" lon="-3.41141">
        <ele>44.36</ele>
        <time>2013-02-09T15:08:48Z</time>
      </trkpt>
      <trkpt lat="47.79101" lon="-3.41184">
        <ele>41.95</ele>
        <time>2013-02-09T15:08:58Z</time>
      </trkpt>
      <trkpt lat="47.79103" lon="-3.41208">
        <ele>41.95</ele>
        <time>2013-02-09T15:09:03Z</time>
      </trkpt>
      <trkpt lat="47.79111" lon="-3.41224">
        <ele>41.95</ele>
        <time>2013-02-09T15:09:09Z</time>
      </trkpt>
      <trkpt lat="47.79118" lon="-3.41243">
        <ele>41.95</ele>
        <time>2013-02-09T15:09:17Z</time>
      </trkpt>
      <trkpt lat="47.79118" lon="-3.41245">
        <ele>41.95</ele>
        <time>2013-02-09T15:09:18Z</time>
      </trkpt>
      <trkpt lat="47.7911" lon="-3.41229">
        <ele>41.47</ele>
        <time>2013-02-09T15:09:24Z</time>
      </trkpt>
      <trkpt lat="47.79107" lon="-3.41221">
        <ele>40.99</ele>
        <time>2013-02-09T15:09:26Z</time>
      </trkpt>
      <trkpt lat="47.79093" lon="-3.41207">
        <ele>41.47</ele>
        <time>2013-02-09T15:09:33Z</time>
      </trkpt>
      <trkpt lat="47.79093" lon="-3.41199">
        <ele>41.47</ele>
        <time>2013-02-09T15:09:37Z</time>
      </trkpt>
      <trkpt lat="47.79096" lon="-3.41196">
        <ele>41.95</ele>
        <time>2013-02-09T15:09:45Z</time>
      </trkpt>
      <trkpt lat="47.79098" lon="-3.41196">
        <ele>41.47</ele>
        <time>2013-02-09T15:10:02Z</time>
      </trkpt>
      <trkpt lat="47.79097" lon="-3.41196">
        <ele>41.47</ele>
        <time>2013-02-09T15:10:24Z</time>
      </trkpt>
      <trkpt lat="47.79106" lon="-3.41214">
        <ele>41.47</ele>
        <time>2013-02-09T15:10:31Z</time>
      </trkpt>
      <trkpt lat="47.79122" lon="-3.41247">
        <ele>41.95</ele>
        <time>2013-02-09T15:10:40Z</time>
      </trkpt>
      <trkpt lat="47.79135" lon="-3.41276">
        <ele>42.44</ele>
        <time>2013-02-09T15:10:49Z</time>
      </trkpt>
      <trkpt lat="47.79152" lon="-3.41307">
        <ele>42.92</ele>
        <time>2013-02-09T15:10:59Z</time>
      </trkpt>
      <trkpt lat="47.79154" lon="-3.4131">
        <ele>42.44</ele>
        <time>2013-02-09T15:11:00Z</time>
      </trkpt>
      <trkpt lat="47.79166" lon="-3.41319">
        <ele>42.44</ele>
        <time>2013-02-09T15:11:03Z</time>
      </trkpt>
      <trkpt lat="47.7919" lon="-3.41325">
        <ele>42.44</ele>
        <time>2013-02-09T15:11:08Z</time>
      </trkpt>
      <trkpt lat="47.79218" lon="-3.41327">
        <ele>42.44</ele>
        <time>2013-02-09T15:11:15Z</time>
      </trkpt>
      <trkpt lat="47.79222" lon="-3.41327">
        <ele>42.44</ele>
        <time>2013-02-09T15:11:16Z</time>
      </trkpt>
      <trkpt lat="47.79234" lon="-3.4133">
        <ele>42.44</ele>
        <time>2013-02-09T15:11:19Z</time>
      </trkpt>
      <trkpt lat="47.79252" lon="-3.41331">
        <ele>41.95</ele>
        <time>2013-02-09T15:11:23Z</time>
      </trkpt>
      <trkpt lat="47.79287" lon="-3.41329">
        <ele>40.03</ele>
        <time>2013-02-09T15:11:30Z</time>
      </trkpt>
      <trkpt lat="47.79297" lon="-3.41341">
        <ele>39.55</ele>
        <time>2013-02-09T15:11:34Z</time>
      </trkpt>
      <trkpt lat="47.79298" lon="-3.41365">
        <ele>39.07</ele>
        <time>2013-02-09T15:11:38Z</time>
      </trkpt>
      <trkpt lat="47.79299" lon="-3.41395">
        <ele>39.07</ele>
        <time>2013-02-09T15:11:43Z</time>
      </trkpt>
      <trkpt lat="47.7931" lon="-3.41402">
        <ele>39.07</ele>
        <time>2013-02-09T15:11:49Z</time>
      </trkpt>
      <trkpt lat="47.79312" lon="-3.41402">
        <ele>39.07</ele>
        <time>2013-02-09T15:11:50Z</time>
      </trkpt>
      <trkpt lat="47.79325" lon="-3.4139">
        <ele>40.51</ele>
        <time>2013-02-09T15:11:58Z</time>
      </trkpt>
      <trkpt lat="47.7935" lon="-3.41379">
        <ele>40.03</ele>
        <time>2013-02-09T15:12:06Z</time>
      </trkpt>
      <trkpt lat="47.7938" lon="-3.41364">
        <ele>35.23</ele>
        <time>2013-02-09T15:12:16Z</time>
      </trkpt>
      <trkpt lat="47.79399" lon="-3.41354">
        <ele>34.26</ele>
        <time>2013-02-09T15:12:22Z</time>
      </trkpt>
      <trkpt lat="47.79433" lon="-3.41333">
        <ele>35.23</ele>
        <time>2013-02-09T15:12:31Z</time>
      </trkpt>
      <trkpt lat="47.79457" lon="-3.41319">
        <ele>36.67</ele>
        <time>2013-02-09T15:12:37Z</time>
      </trkpt>
      <trkpt lat="47.79491" lon="-3.41298">
        <ele>35.71</ele>
        <time>2013-02-09T15:12:45Z</time>
      </trkpt>
      <trkpt lat="47.79518" lon="-3.41284">
        <ele>32.34</ele>
        <time>2013-02-09T15:12:51Z</time>
      </trkpt>
      <trkpt lat="47.79547" lon="-3.41265">
        <ele>30.42</ele>
        <time>2013-02-09T15:12:58Z</time>
      </trkpt>
      <trkpt lat="47.79565" lon="-3.41256">
        <ele>29.46</ele>
        <time>2013-02-09T15:13:01Z</time>
      </trkpt>
      <trkpt lat="47.79583" lon="-3.41245">
        <ele>28.98</ele>
        <time>2013-02-09T15:13:04Z</time>
      </trkpt>
      <trkpt lat="47.79618" lon="-3.41228">
        <ele>28.02</ele>
        <time>2013-02-09T15:13:10Z</time>
      </trkpt>
      <trkpt lat="47.79666" lon="-3.41205">
        <ele>31.38</ele>
        <time>2013-02-09T15:13:19Z</time>
      </trkpt>
      <trkpt lat="47.7969" lon="-3.4119">
        <ele>32.82</ele>
        <time>2013-02-09T15:13:23Z</time>
      </trkpt>
      <trkpt lat="47.79716" lon="-3.41192">
        <ele>34.74</ele>
        <time>2013-02-09T15:13:28Z</time>
      </trkpt>
      <trkpt lat="47.79751" lon="-3.41186">
        <ele>35.71</ele>
        <time>2013-02-09T15:13:37Z</time>
      </trkpt>
      <trkpt lat="47.7977" lon="-3.41186">
        <ele>36.19</ele>
        <time>2013-02-09T15:13:42Z</time>
      </trkpt>
      <trkpt lat="47.79788" lon="-3.41186">
        <ele>35.71</ele>
        <time>2013-02-09T15:13:47Z</time>
      </trkpt>
      <trkpt lat="47.79799" lon="-3.41188">
        <ele>35.71</ele>
        <time>2013-02-09T15:13:50Z</time>
      </trkpt>
      <trkpt lat="47.79807" lon="-3.41188">
        <ele>35.23</ele>
        <time>2013-02-09T15:13:52Z</time>
      </trkpt>
      <trkpt lat="47.79843" lon="-3.41189">
        <ele>34.74</ele>
        <time>2013-02-09T15:14:00Z</time>
      </trkpt>
      <trkpt lat="47.79876" lon="-3.41189">
        <ele>33.3</ele>
        <time>2013-02-09T15:14:06Z</time>
      </trkpt>
      <trkpt lat="47.79919" lon="-3.41189">
        <ele>31.86</ele>
        <time>2013-02-09T15:14:12Z</time>
      </trkpt>
      <trkpt lat="47.80002" lon="-3.41191">
        <ele>31.86</ele>
        <time>2013-02-09T15:14:20Z</time>
      </trkpt>
      <trkpt lat="47.80061" lon="-3.41192">
        <ele>28.98</ele>
        <time>2013-02-09T15:14:26Z</time>
      </trkpt>
      <trkpt lat="47.80114" lon="-3.41193">
        <ele>25.61</ele>
        <time>2013-02-09T15:14:32Z</time>
      </trkpt>
      <trkpt lat="47.80121" lon="-3.41193">
        <ele>25.61</ele>
        <time>2013-02-09T15:14:33Z</time>
      </trkpt>
      <trkpt lat="47.8016" lon="-3.41204">
        <ele>25.61</ele>
        <time>2013-02-09T15:14:40Z</time>
      </trkpt>
      <trkpt lat="47.80185" lon="-3.41213">
        <ele>26.09</ele>
        <time>2013-02-09T15:14:46Z</time>
      </trkpt>
      <trkpt lat="47.80201" lon="-3.41219">
        <ele>27.05</ele>
        <time>2013-02-09T15:14:50Z</time>
      </trkpt>
      <trkpt lat="47.80235" lon="-3.41238">
        <ele>28.5</ele>
        <time>2013-02-09T15:14:58Z</time>
      </trkpt>
      <trkpt lat="47.80265" lon="-3.41251">
        <ele>27.53</ele>
        <time>2013-02-09T15:15:04Z</time>
      </trkpt>
      <trkpt lat="47.80271" lon="-3.41252">
        <ele>27.53</ele>
        <time>2013-02-09T15:15:05Z</time>
      </trkpt>
      <trkpt lat="47.80307" lon="-3.41253">
        <ele>28.02</ele>
        <time>2013-02-09T15:15:11Z</time>
      </trkpt>
      <trkpt lat="47.80369" lon="-3.41235">
        <ele>27.05</ele>
        <time>2013-02-09T15:15:20Z</time>
      </trkpt>
      <trkpt lat="47.80453" lon="-3.41205">
        <ele>25.61</ele>
        <time>2013-02-09T15:15:31Z</time>
      </trkpt>
      <trkpt lat="47.80571" lon="-3.4116">
        <ele>22.73</ele>
        <time>2013-02-09T15:15:45Z</time>
      </trkpt>
      <trkpt lat="47.80644" lon="-3.41136">
        <ele>22.25</ele>
        <time>2013-02-09T15:15:54Z</time>
      </trkpt>
      <trkpt lat="47.80667" lon="-3.41134">
        <ele>22.25</ele>
        <time>2013-02-09T15:15:57Z</time>
      </trkpt>
      <trkpt lat="47.80702" lon="-3.41136">
        <ele>22.73</ele>
        <time>2013-02-09T15:16:02Z</time>
      </trkpt>
      <trkpt lat="47.80729" lon="-3.41138">
        <ele>23.21</ele>
        <time>2013-02-09T15:16:07Z</time>
      </trkpt>
      <trkpt lat="47.80737" lon="-3.41129">
        <ele>24.17</ele>
        <time>2013-02-09T15:16:13Z</time>
      </trkpt>
      <trkpt lat="47.80742" lon="-3.41126">
        <ele>26.09</ele>
        <time>2013-02-09T15:16:21Z</time>
      </trkpt>
      <trkpt lat="47.80747" lon="-3.41119">
        <ele>25.61</ele>
        <time>2013-02-09T15:16:25Z</time>
      </trkpt>
      <trkpt lat="47.80757" lon="-3.41108">
        <ele>26.57</ele>
        <time>2013-02-09T15:16:32Z</time>
      </trkpt>
      <trkpt lat="47.80766" lon="-3.41106">
        <ele>29.94</ele>
        <time>2013-02-09T15:16:38Z</time>
      </trkpt>
      <trkpt lat="47.80772" lon="-3.41102">
        <ele>33.3</ele>
        <time>2013-02-09T15:16:44Z</time>
      </trkpt>
      <trkpt lat="47.80793" lon="-3.41091">
        <ele>34.26</ele>
        <time>2013-02-09T15:16:53Z</time>
      </trkpt>
      <trkpt lat="47.80812" lon="-3.41088">
        <ele>38.59</ele>
        <time>2013-02-09T15:17:01Z</time>
      </trkpt>
      <trkpt lat="47.80822" lon="-3.41088">
        <ele>41.95</ele>
        <time>2013-02-09T15:17:07Z</time>
      </trkpt>
      <trkpt lat="47.80824" lon="-3.41089">
        <ele>41.95</ele>
        <time>2013-02-09T15:17:08Z</time>
      </trkpt>
      <trkpt lat="47.80829" lon="-3.4108">
        <ele>42.44</ele>
        <time>2013-02-09T15:17:13Z</time>
      </trkpt>
      <trkpt lat="47.80829" lon="-3.41062">
        <ele>41.47</ele>
        <time>2013-02-09T15:17:22Z</time>
      </trkpt>
      <trkpt lat="47.80836" lon="-3.41044">
        <ele>38.59</ele>
        <time>2013-02-09T15:17:30Z</time>
      </trkpt>
      <trkpt lat="47.80836" lon="-3.41041">
        <ele>38.11</ele>
        <time>2013-02-09T15:18:27Z</time>
      </trkpt>
      <trkpt lat="47.80834" lon="-3.41064">
        <ele>36.67</ele>
        <time>2013-02-09T15:18:33Z</time>
      </trkpt>
      <trkpt lat="47.80831" lon="-3.41083">
        <ele>34.26</ele>
        <time>2013-02-09T15:18:38Z</time>
      </trkpt>
      <trkpt lat="47.80825" lon="-3.41083">
        <ele>34.26</ele>
        <time>2013-02-09T15:18:40Z</time>
      </trkpt>
      <trkpt lat="47.80804" lon="-3.41085">
        <ele>30.9</ele>
        <time>2013-02-09T15:18:47Z</time>
      </trkpt>
      <trkpt lat="47.80784" lon="-3.41092">
        <ele>27.53</ele>
        <time>2013-02-09T15:18:53Z</time>
      </trkpt>
      <trkpt lat="47.80772" lon="-3.41096">
        <ele>24.65</ele>
        <time>2013-02-09T15:18:58Z</time>
      </trkpt>
      <trkpt lat="47.80765" lon="-3.41109">
        <ele>19.84</ele>
        <time>2013-02-09T15:19:16Z</time>
      </trkpt>
      <trkpt lat="47.80771" lon="-3.41111">
        <ele>17.44</ele>
        <time>2013-02-09T15:22:21Z</time>
      </trkpt>
      <trkpt lat="47.80769" lon="-3.41111">
        <ele>17.92</ele>
        <time>2013-02-09T15:24:12Z</time>
      </trkpt>
      <trkpt lat="47.80768" lon="-3.41109">
        <ele>17.92</ele>
        <time>2013-02-09T15:24:24Z</time>
      </trkpt>
      <trkpt lat="47.80768" lon="-3.41107">
        <ele>17.92</ele>
        <time>2013-02-09T15:24:32Z</time>
      </trkpt>
      <trkpt lat="47.80773" lon="-3.41104">
        <ele>18.4</ele>
        <time>2013-02-09T15:24:45Z</time>
      </trkpt>
      <trkpt lat="47.80792" lon="-3.41094">
        <ele>17.92</ele>
        <time>2013-02-09T15:24:53Z</time>
      </trkpt>
      <trkpt lat="47.80805" lon="-3.41085">
        <ele>17.44</ele>
        <time>2013-02-09T15:24:59Z</time>
      </trkpt>
      <trkpt lat="47.80808" lon="-3.41084">
        <ele>17.44</ele>
        <time>2013-02-09T15:25:00Z</time>
      </trkpt>
      <trkpt lat="47.80814" lon="-3.41085">
        <ele>17.44</ele>
        <time>2013-02-09T15:25:02Z</time>
      </trkpt>
      <trkpt lat="47.80819" lon="-3.41083">
        <ele>16.96</ele>
        <time>2013-02-09T15:25:04Z</time>
      </trkpt>
      <trkpt lat="47.80826" lon="-3.41084">
        <ele>16</ele>
        <time>2013-02-09T15:25:07Z</time>
      </trkpt>
      <trkpt lat="47.80832" lon="-3.41063">
        <ele>16</ele>
        <time>2013-02-09T15:25:15Z</time>
      </trkpt>
      <trkpt lat="47.80832" lon="-3.4106">
        <ele>16.96</ele>
        <time>2013-02-09T15:25:16Z</time>
      </trkpt>
      <trkpt lat="47.80837" lon="-3.41046">
        <ele>17.92</ele>
        <time>2013-02-09T15:25:21Z</time>
      </trkpt>
      <trkpt lat="47.80844" lon="-3.41033">
        <ele>18.88</ele>
        <time>2013-02-09T15:25:25Z</time>
      </trkpt>
      <trkpt lat="47.80858" lon="-3.4101">
        <ele>17.92</ele>
        <time>2013-02-09T15:25:35Z</time>
      </trkpt>
      <trkpt lat="47.80866" lon="-3.40998">
        <ele>14.56</ele>
        <time>2013-02-09T15:25:41Z</time>
      </trkpt>
      <trkpt lat="47.80873" lon="-3.41">
        <ele>13.6</ele>
        <time>2013-02-09T15:25:47Z</time>
      </trkpt>
      <trkpt lat="47.80885" lon="-3.41007">
        <ele>12.63</ele>
        <time>2013-02-09T15:25:54Z</time>
      </trkpt>
      <trkpt lat="47.80892" lon="-3.41017">
        <ele>12.15</ele>
        <time>2013-02-09T15:26:00Z</time>
      </trkpt>
      <trkpt lat="47.809" lon="-3.41023">
        <ele>12.15</ele>
        <time>2013-02-09T15:26:05Z</time>
      </trkpt>
      <trkpt lat="47.80911" lon="-3.41006">
        <ele>8.31</ele>
        <time>2013-02-09T15:26:14Z</time>
      </trkpt>
      <trkpt lat="47.80922" lon="-3.41015">
        <ele>6.39</ele>
        <time>2013-02-09T15:26:19Z</time>
      </trkpt>
      <trkpt lat="47.8093" lon="-3.41006">
        <ele>3.5</ele>
        <time>2013-02-09T15:26:24Z</time>
      </trkpt>
      <trkpt lat="47.80938" lon="-3.41015">
        <ele>2.54</ele>
        <time>2013-02-09T15:26:33Z</time>
      </trkpt>
      <trkpt lat="47.8094" lon="-3.41013">
        <ele>2.54</ele>
        <time>2013-02-09T15:26:39Z</time>
      </trkpt>
      <trkpt lat="47.80932" lon="-3.41">
        <ele>3.5</ele>
        <time>2013-02-09T15:26:47Z</time>
      </trkpt>
      <trkpt lat="47.80921" lon="-3.40973">
        <ele>4.94</ele>
        <time>2013-02-09T15:26:56Z</time>
      </trkpt>
      <trkpt lat="47.80905" lon="-3.40953">
        <ele>6.39</ele>
        <time>2013-02-09T15:27:03Z</time>
      </trkpt>
      <trkpt lat="47.80878" lon="-3.40923">
        <ele>8.31</ele>
        <time>2013-02-09T15:27:12Z</time>
      </trkpt>
      <trkpt lat="47.80846" lon="-3.4089">
        <ele>9.75</ele>
        <time>2013-02-09T15:27:20Z</time>
      </trkpt>
      <trkpt lat="47.80805" lon="-3.40857">
        <ele>11.67</ele>
        <time>2013-02-09T15:27:30Z</time>
      </trkpt>
      <trkpt lat="47.80795" lon="-3.40851">
        <ele>11.19</ele>
        <time>2013-02-09T15:27:32Z</time>
      </trkpt>
      <trkpt lat="47.80785" lon="-3.4083">
        <ele>11.67</ele>
        <time>2013-02-09T15:27:36Z</time>
      </trkpt>
      <trkpt lat="47.80785" lon="-3.40784">
        <ele>12.63</ele>
        <time>2013-02-09T15:27:45Z</time>
      </trkpt>
      <trkpt lat="47.80786" lon="-3.40731">
        <ele>15.04</ele>
        <time>2013-02-09T15:27:53Z</time>
      </trkpt>
      <trkpt lat="47.80785" lon="-3.4066">
        <ele>18.4</ele>
        <time>2013-02-09T15:28:02Z</time>
      </trkpt>
      <trkpt lat="47.8079" lon="-3.40587">
        <ele>19.84</ele>
        <time>2013-02-09T15:28:11Z</time>
      </trkpt>
      <trkpt lat="47.8079" lon="-3.40571">
        <ele>20.32</ele>
        <time>2013-02-09T15:28:13Z</time>
      </trkpt>
      <trkpt lat="47.80789" lon="-3.40543">
        <ele>21.77</ele>
        <time>2013-02-09T15:28:17Z</time>
      </trkpt>
      <trkpt lat="47.80775" lon="-3.40484">
        <ele>25.61</ele>
        <time>2013-02-09T15:28:26Z</time>
      </trkpt>
      <trkpt lat="47.80768" lon="-3.40454">
        <ele>28.02</ele>
        <time>2013-02-09T15:28:32Z</time>
      </trkpt>
      <trkpt lat="47.80795" lon="-3.40445">
        <ele>28.5</ele>
        <time>2013-02-09T15:28:39Z</time>
      </trkpt>
      <trkpt lat="47.80834" lon="-3.40449">
        <ele>28.5</ele>
        <time>2013-02-09T15:28:46Z</time>
      </trkpt>
      <trkpt lat="47.8084" lon="-3.40451">
        <ele>28.02</ele>
        <time>2013-02-09T15:28:47Z</time>
      </trkpt>
      <trkpt lat="47.80872" lon="-3.40459">
        <ele>23.21</ele>
        <time>2013-02-09T15:28:53Z</time>
      </trkpt>
      <trkpt lat="47.80878" lon="-3.4046">
        <ele>21.77</ele>
        <time>2013-02-09T15:28:54Z</time>
      </trkpt>
      <trkpt lat="47.8089" lon="-3.40457">
        <ele>20.32</ele>
        <time>2013-02-09T15:28:56Z</time>
      </trkpt>
      <trkpt lat="47.80916" lon="-3.40439">
        <ele>19.36</ele>
        <time>2013-02-09T15:29:02Z</time>
      </trkpt>
      <trkpt lat="47.80933" lon="-3.40408">
        <ele>16.96</ele>
        <time>2013-02-09T15:29:08Z</time>
      </trkpt>
      <trkpt lat="47.8095" lon="-3.40381">
        <ele>14.08</ele>
        <time>2013-02-09T15:29:13Z</time>
      </trkpt>
      <trkpt lat="47.80969" lon="-3.40352">
        <ele>10.23</ele>
        <time>2013-02-09T15:29:19Z</time>
      </trkpt>
      <trkpt lat="47.80994" lon="-3.40331">
        <ele>6.87</ele>
        <time>2013-02-09T15:29:25Z</time>
      </trkpt>
      <trkpt lat="47.81018" lon="-3.40309">
        <ele>3.5</ele>
        <time>2013-02-09T15:29:31Z</time>
      </trkpt>
      <trkpt lat="47.81031" lon="-3.40295">
        <ele>3.02</ele>
        <time>2013-02-09T15:29:35Z</time>
      </trkpt>
      <trkpt lat="47.8105" lon="-3.40266">
        <ele>1.58</ele>
        <time>2013-02-09T15:29:42Z</time>
      </trkpt>
      <trkpt lat="47.81057" lon="-3.40246">
        <ele>3.02</ele>
        <time>2013-02-09T15:29:49Z</time>
      </trkpt>
      <trkpt lat="47.81076" lon="-3.40222">
        <ele>3.98</ele>
        <time>2013-02-09T15:29:57Z</time>
      </trkpt>
      <trkpt lat="47.81091" lon="-3.40203">
        <ele>5.91</ele>
        <time>2013-02-09T15:30:04Z</time>
      </trkpt>
      <trkpt lat="47.81106" lon="-3.40182">
        <ele>9.27</ele>
        <time>2013-02-09T15:30:13Z</time>
      </trkpt>
      <trkpt lat="47.81121" lon="-3.40176">
        <ele>11.67</ele>
        <time>2013-02-09T15:30:22Z</time>
      </trkpt>
      <trkpt lat="47.81135" lon="-3.40178">
        <ele>14.56</ele>
        <time>2013-02-09T15:30:29Z</time>
      </trkpt>
      <trkpt lat="47.81149" lon="-3.40181">
        <ele>19.36</ele>
        <time>2013-02-09T15:30:41Z</time>
      </trkpt>
      <trkpt lat="47.81158" lon="-3.40181">
        <ele>22.73</ele>
        <time>2013-02-09T15:30:56Z</time>
      </trkpt>
      <trkpt lat="47.81194" lon="-3.40192">
        <ele>22.25</ele>
        <time>2013-02-09T15:31:55Z</time>
      </trkpt>
      <trkpt lat="47.81224" lon="-3.40196">
        <ele>22.25</ele>
        <time>2013-02-09T15:32:03Z</time>
      </trkpt>
      <trkpt lat="47.81245" lon="-3.40196">
        <ele>28.98</ele>
        <time>2013-02-09T15:32:13Z</time>
      </trkpt>
      <trkpt lat="47.81261" lon="-3.40198">
        <ele>30.9</ele>
        <time>2013-02-09T15:32:21Z</time>
      </trkpt>
      <trkpt lat="47.81276" lon="-3.40202">
        <ele>32.82</ele>
        <time>2013-02-09T15:32:31Z</time>
      </trkpt>
      <trkpt lat="47.81284" lon="-3.40203">
        <ele>34.74</ele>
        <time>2013-02-09T15:32:38Z</time>
      </trkpt>
      <trkpt lat="47.81289" lon="-3.40205">
        <ele>35.71</ele>
        <time>2013-02-09T15:32:43Z</time>
      </trkpt>
      <trkpt lat="47.81301" lon="-3.402">
        <ele>38.11</ele>
        <time>2013-02-09T15:32:53Z</time>
      </trkpt>
      <trkpt lat="47.81304" lon="-3.40199">
        <ele>39.07</ele>
        <time>2013-02-09T15:32:55Z</time>
      </trkpt>
      <trkpt lat="47.81311" lon="-3.40191">
        <ele>41.95</ele>
        <time>2013-02-09T15:33:06Z</time>
      </trkpt>
      <trkpt lat="47.81312" lon="-3.40193">
        <ele>41.47</ele>
        <time>2013-02-09T15:33:31Z</time>
      </trkpt>
      <trkpt lat="47.81313" lon="-3.4019">
        <ele>40.99</ele>
        <time>2013-02-09T15:33:43Z</time>
      </trkpt>
      <trkpt lat="47.81311" lon="-3.40186">
        <ele>40.51</ele>
        <time>2013-02-09T15:34:20Z</time>
      </trkpt>
      <trkpt lat="47.81312" lon="-3.40161">
        <ele>40.03</ele>
        <time>2013-02-09T15:34:30Z</time>
      </trkpt>
      <trkpt lat="47.81315" lon="-3.40126">
        <ele>40.51</ele>
        <time>2013-02-09T15:34:40Z</time>
      </trkpt>
      <trkpt lat="47.81319" lon="-3.40081">
        <ele>41.95</ele>
        <time>2013-02-09T15:34:51Z</time>
      </trkpt>
      <trkpt lat="47.81324" lon="-3.40031">
        <ele>40.99</ele>
        <time>2013-02-09T15:35:01Z</time>
      </trkpt>
      <trkpt lat="47.81331" lon="-3.39977">
        <ele>39.55</ele>
        <time>2013-02-09T15:35:09Z</time>
      </trkpt>
      <trkpt lat="47.81344" lon="-3.399">
        <ele>37.15</ele>
        <time>2013-02-09T15:35:18Z</time>
      </trkpt>
      <trkpt lat="47.81358" lon="-3.39821">
        <ele>37.63</ele>
        <time>2013-02-09T15:35:25Z</time>
      </trkpt>
      <trkpt lat="47.81381" lon="-3.39728">
        <ele>38.59</ele>
        <time>2013-02-09T15:35:33Z</time>
      </trkpt>
      <trkpt lat="47.81397" lon="-3.39673">
        <ele>40.03</ele>
        <time>2013-02-09T15:35:39Z</time>
      </trkpt>
      <trkpt lat="47.81414" lon="-3.3962">
        <ele>41.47</ele>
        <time>2013-02-09T15:35:46Z</time>
      </trkpt>
      <trkpt lat="47.8143" lon="-3.3957">
        <ele>42.44</ele>
        <time>2013-02-09T15:35:54Z</time>
      </trkpt>
      <trkpt lat="47.81441" lon="-3.39566">
        <ele>42.44</ele>
        <time>2013-02-09T15:35:58Z</time>
      </trkpt>
      <trkpt lat="47.81473" lon="-3.39581">
        <ele>40.99</ele>
        <time>2013-02-09T15:36:06Z</time>
      </trkpt>
      <trkpt lat="47.81523" lon="-3.39608">
        <ele>39.55</ele>
        <time>2013-02-09T15:36:18Z</time>
      </trkpt>
      <trkpt lat="47.81603" lon="-3.39647">
        <ele>38.59</ele>
        <time>2013-02-09T15:36:33Z</time>
      </trkpt>
      <trkpt lat="47.81629" lon="-3.39659">
        <ele>38.11</ele>
        <time>2013-02-09T15:36:38Z</time>
      </trkpt>
      <trkpt lat="47.81644" lon="-3.39662">
        <ele>37.63</ele>
        <time>2013-02-09T15:36:41Z</time>
      </trkpt>
      <trkpt lat="47.81677" lon="-3.39656">
        <ele>38.59</ele>
        <time>2013-02-09T15:36:49Z</time>
      </trkpt>
      <trkpt lat="47.81691" lon="-3.39638">
        <ele>39.07</ele>
        <time>2013-02-09T15:36:54Z</time>
      </trkpt>
      <trkpt lat="47.81698" lon="-3.39593">
        <ele>39.55</ele>
        <time>2013-02-09T15:37:04Z</time>
      </trkpt>
      <trkpt lat="47.81702" lon="-3.39542">
        <ele>40.03</ele>
        <time>2013-02-09T15:37:14Z</time>
      </trkpt>
      <trkpt lat="47.8171" lon="-3.39508">
        <ele>40.03</ele>
        <time>2013-02-09T15:37:21Z</time>
      </trkpt>
      <trkpt lat="47.81722" lon="-3.39465">
        <ele>39.55</ele>
        <time>2013-02-09T15:37:30Z</time>
      </trkpt>
      <trkpt lat="47.81735" lon="-3.39417">
        <ele>39.07</ele>
        <time>2013-02-09T15:37:40Z</time>
      </trkpt>
      <trkpt lat="47.81748" lon="-3.39367">
        <ele>37.63</ele>
        <time>2013-02-09T15:37:49Z</time>
      </trkpt>
      <trkpt lat="47.8177" lon="-3.39282">
        <ele>35.23</ele>
        <time>2013-02-09T15:38:00Z</time>
      </trkpt>
      <trkpt lat="47.81787" lon="-3.39214">
        <ele>31.86</ele>
        <time>2013-02-09T15:38:08Z</time>
      </trkpt>
      <trkpt lat="47.81809" lon="-3.39161">
        <ele>29.46</ele>
        <time>2013-02-09T15:38:15Z</time>
      </trkpt>
      <trkpt lat="47.8182" lon="-3.3915">
        <ele>28.98</ele>
        <time>2013-02-09T15:38:20Z</time>
      </trkpt>
      <trkpt lat="47.81821" lon="-3.3915">
        <ele>28.98</ele>
        <time>2013-02-09T15:38:21Z</time>
      </trkpt>
      <trkpt lat="47.8185" lon="-3.39162">
        <ele>32.34</ele>
        <time>2013-02-09T15:38:30Z</time>
      </trkpt>
      <trkpt lat="47.81878" lon="-3.3918">
        <ele>36.19</ele>
        <time>2013-02-09T15:38:38Z</time>
      </trkpt>
      <trkpt lat="47.81898" lon="-3.39199">
        <ele>37.63</ele>
        <time>2013-02-09T15:38:44Z</time>
      </trkpt>
      <trkpt lat="47.81909" lon="-3.3922">
        <ele>37.63</ele>
        <time>2013-02-09T15:38:48Z</time>
      </trkpt>
      <trkpt lat="47.8192" lon="-3.39241">
        <ele>40.51</ele>
        <time>2013-02-09T15:38:54Z</time>
      </trkpt>
      <trkpt lat="47.8193" lon="-3.39224">
        <ele>40.99</ele>
        <time>2013-02-09T15:39:00Z</time>
      </trkpt>
      <trkpt lat="47.81947" lon="-3.39214">
        <ele>43.4</ele>
        <time>2013-02-09T15:39:07Z</time>
      </trkpt>
      <trkpt lat="47.81967" lon="-3.39193">
        <ele>44.36</ele>
        <time>2013-02-09T15:39:13Z</time>
      </trkpt>
      <trkpt lat="47.8197" lon="-3.39191">
        <ele>44.84</ele>
        <time>2013-02-09T15:39:14Z</time>
      </trkpt>
      <trkpt lat="47.81993" lon="-3.39199">
        <ele>44.36</ele>
        <time>2013-02-09T15:39:22Z</time>
      </trkpt>
      <trkpt lat="47.82015" lon="-3.39223">
        <ele>42.44</ele>
        <time>2013-02-09T15:39:27Z</time>
      </trkpt>
      <trkpt lat="47.82027" lon="-3.39237">
        <ele>41.47</ele>
        <time>2013-02-09T15:39:29Z</time>
      </trkpt>
      <trkpt lat="47.82056" lon="-3.39234">
        <ele>35.23</ele>
        <time>2013-02-09T15:39:33Z</time>
      </trkpt>
      <trkpt lat="47.82083" lon="-3.39241">
        <ele>27.05</ele>
        <time>2013-02-09T15:39:39Z</time>
      </trkpt>
      <trkpt lat="47.82087" lon="-3.3924">
        <ele>25.13</ele>
        <time>2013-02-09T15:39:40Z</time>
      </trkpt>
      <trkpt lat="47.82096" lon="-3.3923">
        <ele>22.25</ele>
        <time>2013-02-09T15:39:43Z</time>
      </trkpt>
      <trkpt lat="47.82121" lon="-3.39233">
        <ele>15.04</ele>
        <time>2013-02-09T15:39:51Z</time>
      </trkpt>
      <trkpt lat="47.82142" lon="-3.39228">
        <ele>10.23</ele>
        <time>2013-02-09T15:39:57Z</time>
      </trkpt>
      <trkpt lat="47.82154" lon="-3.39232">
        <ele>6.87</ele>
        <time>2013-02-09T15:40:03Z</time>
      </trkpt>
      <trkpt lat="47.82161" lon="-3.39231">
        <ele>5.91</ele>
        <time>2013-02-09T15:40:09Z</time>
      </trkpt>
      <trkpt lat="47.82172" lon="-3.39225">
        <ele>4.46</ele>
        <time>2013-02-09T15:41:03Z</time>
      </trkpt>
      <trkpt lat="47.82188" lon="-3.39221">
        <ele>2.06</ele>
        <time>2013-02-09T15:41:11Z</time>
      </trkpt>
      <trkpt lat="47.82202" lon="-3.39216">
        <ele>0.62</ele>
        <time>2013-02-09T15:41:18Z</time>
      </trkpt>
      <trkpt lat="47.82204" lon="-3.39215">
        <ele>0.62</ele>
        <time>2013-02-09T15:41:19Z</time>
      </trkpt>
      <trkpt lat="47.82215" lon="-3.3921">
        <ele>-0.34</ele>
        <time>2013-02-09T15:41:25Z</time>
      </trkpt>
      <trkpt lat="47.82228" lon="-3.39208">
        <ele>-0.82</ele>
        <time>2013-02-09T15:41:33Z</time>
      </trkpt>
      <trkpt lat="47.82247" lon="-3.39211">
        <ele>-0.34</ele>
        <time>2013-02-09T15:41:43Z</time>
      </trkpt>
      <trkpt lat="47.82265" lon="-3.39205">
        <ele>-0.82</ele>
        <time>2013-02-09T15:41:51Z</time>
      </trkpt>
      <trkpt lat="47.82285" lon="-3.39196">
        <ele>-0.82</ele>
        <time>2013-02-09T15:41:59Z</time>
      </trkpt>
      <trkpt lat="47.82301" lon="-3.39195">
        <ele>-0.82</ele>
        <time>2013-02-09T15:42:06Z</time>
      </trkpt>
      <trkpt lat="47.82314" lon="-3.39206">
        <ele>0.14</ele>
        <time>2013-02-09T15:42:13Z</time>
      </trkpt>
      <trkpt lat="47.82327" lon="-3.39211">
        <ele>1.58</ele>
        <time>2013-02-09T15:42:21Z</time>
      </trkpt>
      <trkpt lat="47.82333" lon="-3.39207">
        <ele>1.1</ele>
        <time>2013-02-09T15:42:30Z</time>
      </trkpt>
      <trkpt lat="47.82336" lon="-3.39202">
        <ele>0.14</ele>
        <time>2013-02-09T15:42:55Z</time>
      </trkpt>
      <trkpt lat="47.82339" lon="-3.39201">
        <ele>-0.34</ele>
        <time>2013-02-09T15:43:02Z</time>
      </trkpt>
      <trkpt lat="47.82338" lon="-3.392">
        <ele>-0.34</ele>
        <time>2013-02-09T15:43:26Z</time>
      </trkpt>
      <trkpt lat="47.82338" lon="-3.392">
        <ele>-0.34</ele>
        <time>2013-02-09T15:43:35Z</time>
      </trkpt>
      <trkpt lat="47.82363" lon="-3.39194">
        <ele>-1.3</ele>
        <time>2013-02-09T15:43:50Z</time>
      </trkpt>
      <trkpt lat="47.82393" lon="-3.39194">
        <ele>-0.82</ele>
        <time>2013-02-09T15:44:03Z</time>
      </trkpt>
      <trkpt lat="47.82419" lon="-3.39189">
        <ele>-1.3</ele>
        <time>2013-02-09T15:44:14Z</time>
      </trkpt>
      <trkpt lat="47.82435" lon="-3.39188">
        <ele>-0.82</ele>
        <time>2013-02-09T15:44:21Z</time>
      </trkpt>
      <trkpt lat="47.82464" lon="-3.39185">
        <ele>-0.82</ele>
        <time>2013-02-09T15:44:32Z</time>
      </trkpt>
      <trkpt lat="47.82482" lon="-3.39185">
        <ele>-1.3</ele>
        <time>2013-02-09T15:44:39Z</time>
      </trkpt>
      <trkpt lat="47.82488" lon="-3.39184">
        <ele>-1.3</ele>
        <time>2013-02-09T15:44:44Z</time>
      </trkpt>
      <trkpt lat="47.82499" lon="-3.3919">
        <ele>-1.3</ele>
        <time>2013-02-09T15:45:14Z</time>
      </trkpt>
      <trkpt lat="47.82513" lon="-3.39205">
        <ele>-1.3</ele>
        <time>2013-02-09T15:45:21Z</time>
      </trkpt>
      <trkpt lat="47.82524" lon="-3.39219">
        <ele>-1.3</ele>
        <time>2013-02-09T15:45:27Z</time>
      </trkpt>
      <trkpt lat="47.82538" lon="-3.39232">
        <ele>-0.34</ele>
        <time>2013-02-09T15:45:34Z</time>
      </trkpt>
      <trkpt lat="47.82551" lon="-3.39222">
        <ele>0.62</ele>
        <time>2013-02-09T15:45:41Z</time>
      </trkpt>
      <trkpt lat="47.8256" lon="-3.39218">
        <ele>0.62</ele>
        <time>2013-02-09T15:45:44Z</time>
      </trkpt>
      <trkpt lat="47.82579" lon="-3.39203">
        <ele>0.14</ele>
        <time>2013-02-09T15:45:52Z</time>
      </trkpt>
      <trkpt lat="47.82589" lon="-3.39186">
        <ele>-0.34</ele>
        <time>2013-02-09T15:45:58Z</time>
      </trkpt>
      <trkpt lat="47.82608" lon="-3.3918">
        <ele>-0.34</ele>
        <time>2013-02-09T15:46:07Z</time>
      </trkpt>
      <trkpt lat="47.82623" lon="-3.39182">
        <ele>0.62</ele>
        <time>2013-02-09T15:46:15Z</time>
      </trkpt>
      <trkpt lat="47.82638" lon="-3.39157">
        <ele>-0.34</ele>
        <time>2013-02-09T15:46:25Z</time>
      </trkpt>
      <trkpt lat="47.82645" lon="-3.39127">
        <ele>-1.79</ele>
        <time>2013-02-09T15:46:32Z</time>
      </trkpt>
      <trkpt lat="47.82652" lon="-3.391">
        <ele>-3.23</ele>
        <time>2013-02-09T15:46:36Z</time>
      </trkpt>
      <trkpt lat="47.82666" lon="-3.3908">
        <ele>-4.67</ele>
        <time>2013-02-09T15:46:41Z</time>
      </trkpt>
      <trkpt lat="47.82695" lon="-3.39062">
        <ele>-5.15</ele>
        <time>2013-02-09T15:46:50Z</time>
      </trkpt>
      <trkpt lat="47.82719" lon="-3.39045">
        <ele>-6.59</ele>
        <time>2013-02-09T15:46:57Z</time>
      </trkpt>
      <trkpt lat="47.82742" lon="-3.39017">
        <ele>-9.48</ele>
        <time>2013-02-09T15:47:05Z</time>
      </trkpt>
      <trkpt lat="47.82754" lon="-3.39002">
        <ele>-10.44</ele>
        <time>2013-02-09T15:47:10Z</time>
      </trkpt>
      <trkpt lat="47.82777" lon="-3.38986">
        <ele>-9.48</ele>
        <time>2013-02-09T15:47:19Z</time>
      </trkpt>
      <trkpt lat="47.82785" lon="-3.38987">
        <ele>-9</ele>
        <time>2013-02-09T15:47:22Z</time>
      </trkpt>
      <trkpt lat="47.82812" lon="-3.38976">
        <ele>-8.03</ele>
        <time>2013-02-09T15:47:31Z</time>
      </trkpt>
      <trkpt lat="47.82828" lon="-3.38969">
        <ele>-6.59</ele>
        <time>2013-02-09T15:47:38Z</time>
      </trkpt>
      <trkpt lat="47.82834" lon="-3.38968">
        <ele>-6.11</ele>
        <time>2013-02-09T15:47:42Z</time>
      </trkpt>
      <trkpt lat="47.82849" lon="-3.38976">
        <ele>-1.79</ele>
        <time>2013-02-09T15:47:52Z</time>
      </trkpt>
      <trkpt lat="47.82864" lon="-3.3898">
        <ele>3.98</ele>
        <time>2013-02-09T15:48:02Z</time>
      </trkpt>
      <trkpt lat="47.82875" lon="-3.3898">
        <ele>9.27</ele>
        <time>2013-02-09T15:48:09Z</time>
      </trkpt>
      <trkpt lat="47.82885" lon="-3.38974">
        <ele>12.63</ele>
        <time>2013-02-09T15:48:17Z</time>
      </trkpt>
      <trkpt lat="47.82921" lon="-3.38954">
        <ele>17.44</ele>
        <time>2013-02-09T15:48:38Z</time>
      </trkpt>
      <trkpt lat="47.82933" lon="-3.38949">
        <ele>17.92</ele>
        <time>2013-02-09T15:48:45Z</time>
      </trkpt>
      <trkpt lat="47.82946" lon="-3.38946">
        <ele>18.4</ele>
        <time>2013-02-09T15:48:51Z</time>
      </trkpt>
      <trkpt lat="47.8296" lon="-3.3895">
        <ele>20.81</ele>
        <time>2013-02-09T15:48:59Z</time>
      </trkpt>
      <trkpt lat="47.82962" lon="-3.38948">
        <ele>21.77</ele>
        <time>2013-02-09T15:49:09Z</time>
      </trkpt>
      <trkpt lat="47.82963" lon="-3.38947">
        <ele>21.77</ele>
        <time>2013-02-09T15:50:03Z</time>
      </trkpt>
      <trkpt lat="47.82997" lon="-3.38932">
        <ele>19.36</ele>
        <time>2013-02-09T15:50:13Z</time>
      </trkpt>
      <trkpt lat="47.83014" lon="-3.38928">
        <ele>16.48</ele>
        <time>2013-02-09T15:50:19Z</time>
      </trkpt>
      <trkpt lat="47.83032" lon="-3.38927">
        <ele>10.23</ele>
        <time>2013-02-09T15:50:25Z</time>
      </trkpt>
      <trkpt lat="47.83052" lon="-3.38909">
        <ele>7.83</ele>
        <time>2013-02-09T15:50:30Z</time>
      </trkpt>
      <trkpt lat="47.83076" lon="-3.38878">
        <ele>1.1</ele>
        <time>2013-02-09T15:50:37Z</time>
      </trkpt>
      <trkpt lat="47.83095" lon="-3.38853">
        <ele>-1.3</ele>
        <time>2013-02-09T15:50:43Z</time>
      </trkpt>
      <trkpt lat="47.83104" lon="-3.38829">
        <ele>-3.71</ele>
        <time>2013-02-09T15:50:49Z</time>
      </trkpt>
      <trkpt lat="47.83114" lon="-3.38801">
        <ele>-7.07</ele>
        <time>2013-02-09T15:50:55Z</time>
      </trkpt>
      <trkpt lat="47.83127" lon="-3.38779">
        <ele>-9.96</ele>
        <time>2013-02-09T15:51:00Z</time>
      </trkpt>
      <trkpt lat="47.8315" lon="-3.38761">
        <ele>-14.28</ele>
        <time>2013-02-09T15:51:07Z</time>
      </trkpt>
      <trkpt lat="47.83185" lon="-3.38768">
        <ele>-15.72</ele>
        <time>2013-02-09T15:51:16Z</time>
      </trkpt>
      <trkpt lat="47.83201" lon="-3.38785">
        <ele>-13.8</ele>
        <time>2013-02-09T15:51:21Z</time>
      </trkpt>
      <trkpt lat="47.83215" lon="-3.38808">
        <ele>-11.4</ele>
        <time>2013-02-09T15:51:28Z</time>
      </trkpt>
      <trkpt lat="47.83219" lon="-3.38815">
        <ele>-9.48</ele>
        <time>2013-02-09T15:51:34Z</time>
      </trkpt>
      <trkpt lat="47.83227" lon="-3.38835">
        <ele>-9</ele>
        <time>2013-02-09T15:51:52Z</time>
      </trkpt>
      <trkpt lat="47.83238" lon="-3.38858">
        <ele>-8.03</ele>
        <time>2013-02-09T15:51:57Z</time>
      </trkpt>
      <trkpt lat="47.83254" lon="-3.38886">
        <ele>-6.11</ele>
        <time>2013-02-09T15:52:05Z</time>
      </trkpt>
      <trkpt lat="47.83272" lon="-3.38923">
        <ele>-3.71</ele>
        <time>2013-02-09T15:52:13Z</time>
      </trkpt>
      <trkpt lat="47.83283" lon="-3.38941">
        <ele>-2.75</ele>
        <time>2013-02-09T15:52:18Z</time>
      </trkpt>
      <trkpt lat="47.833" lon="-3.38962">
        <ele>-3.23</ele>
        <time>2013-02-09T15:52:24Z</time>
      </trkpt>
      <trkpt lat="47.83313" lon="-3.39">
        <ele>-2.27</ele>
        <time>2013-02-09T15:52:30Z</time>
      </trkpt>
      <trkpt lat="47.83324" lon="-3.39034">
        <ele>-2.27</ele>
        <time>2013-02-09T15:52:36Z</time>
      </trkpt>
      <trkpt lat="47.83333" lon="-3.39059">
        <ele>1.1</ele>
        <time>2013-02-09T15:52:42Z</time>
      </trkpt>
      <trkpt lat="47.83341" lon="-3.39079">
        <ele>5.42</ele>
        <time>2013-02-09T15:52:50Z</time>
      </trkpt>
      <trkpt lat="47.8335" lon="-3.39108">
        <ele>7.83</ele>
        <time>2013-02-09T15:52:59Z</time>
      </trkpt>
      <trkpt lat="47.83359" lon="-3.39119">
        <ele>10.23</ele>
        <time>2013-02-09T15:53:06Z</time>
      </trkpt>
      <trkpt lat="47.83368" lon="-3.39138">
        <ele>12.15</ele>
        <time>2013-02-09T15:53:12Z</time>
      </trkpt>
      <trkpt lat="47.83371" lon="-3.39152">
        <ele>15.04</ele>
        <time>2013-02-09T15:53:19Z</time>
      </trkpt>
      <trkpt lat="47.8338" lon="-3.39179">
        <ele>20.32</ele>
        <time>2013-02-09T15:53:29Z</time>
      </trkpt>
      <trkpt lat="47.83387" lon="-3.39203">
        <ele>22.73</ele>
        <time>2013-02-09T15:53:35Z</time>
      </trkpt>
      <trkpt lat="47.83401" lon="-3.39223">
        <ele>24.17</ele>
        <time>2013-02-09T15:53:42Z</time>
      </trkpt>
      <trkpt lat="47.83408" lon="-3.39232">
        <ele>24.65</ele>
        <time>2013-02-09T15:53:48Z</time>
      </trkpt>
      <trkpt lat="47.83422" lon="-3.39251">
        <ele>23.69</ele>
        <time>2013-02-09T15:53:56Z</time>
      </trkpt>
      <trkpt lat="47.83425" lon="-3.39272">
        <ele>24.65</ele>
        <time>2013-02-09T15:54:04Z</time>
      </trkpt>
      <trkpt lat="47.83429" lon="-3.39292">
        <ele>24.65</ele>
        <time>2013-02-09T15:54:12Z</time>
      </trkpt>
      <trkpt lat="47.83438" lon="-3.39311">
        <ele>25.13</ele>
        <time>2013-02-09T15:54:22Z</time>
      </trkpt>
      <trkpt lat="47.83452" lon="-3.39329">
        <ele>25.61</ele>
        <time>2013-02-09T15:54:30Z</time>
      </trkpt>
      <trkpt lat="47.83453" lon="-3.39336">
        <ele>25.61</ele>
        <time>2013-02-09T15:54:34Z</time>
      </trkpt>
      <trkpt lat="47.83447" lon="-3.39357">
        <ele>24.17</ele>
        <time>2013-02-09T15:54:56Z</time>
      </trkpt>
      <trkpt lat="47.83438" lon="-3.3938">
        <ele>23.21</ele>
        <time>2013-02-09T15:55:02Z</time>
      </trkpt>
      <trkpt lat="47.83438" lon="-3.39406">
        <ele>21.77</ele>
        <time>2013-02-09T15:55:10Z</time>
      </trkpt>
      <trkpt lat="47.83431" lon="-3.39416">
        <ele>19.36</ele>
        <time>2013-02-09T15:55:19Z</time>
      </trkpt>
      <trkpt lat="47.8342" lon="-3.39419">
        <ele>18.88</ele>
        <time>2013-02-09T15:55:25Z</time>
      </trkpt>
      <trkpt lat="47.8341" lon="-3.39415">
        <ele>19.36</ele>
        <time>2013-02-09T15:55:33Z</time>
      </trkpt>
      <trkpt lat="47.83393" lon="-3.39405">
        <ele>18.88</ele>
        <time>2013-02-09T15:55:43Z</time>
      </trkpt>
      <trkpt lat="47.83386" lon="-3.39401">
        <ele>17.44</ele>
        <time>2013-02-09T15:55:51Z</time>
      </trkpt>
      <trkpt lat="47.83383" lon="-3.39401">
        <ele>16.48</ele>
        <time>2013-02-09T15:55:54Z</time>
      </trkpt>
      <trkpt lat="47.83369" lon="-3.39404">
        <ele>17.44</ele>
        <time>2013-02-09T15:56:02Z</time>
      </trkpt>
      <trkpt lat="47.83358" lon="-3.39417">
        <ele>19.84</ele>
        <time>2013-02-09T15:56:09Z</time>
      </trkpt>
      <trkpt lat="47.83354" lon="-3.39435">
        <ele>23.21</ele>
        <time>2013-02-09T15:56:21Z</time>
      </trkpt>
      <trkpt lat="47.83353" lon="-3.39425">
        <ele>23.21</ele>
        <time>2013-02-09T15:56:27Z</time>
      </trkpt>
      <trkpt lat="47.83354" lon="-3.39425">
        <ele>24.65</ele>
        <time>2013-02-09T15:56:35Z</time>
      </trkpt>
      <trkpt lat="47.83354" lon="-3.39427">
        <ele>24.65</ele>
        <time>2013-02-09T15:56:42Z</time>
      </trkpt>
      <trkpt lat="47.83352" lon="-3.39431">
        <ele>24.65</ele>
        <time>2013-02-09T15:57:01Z</time>
      </trkpt>
      <trkpt lat="47.83352" lon="-3.39449">
        <ele>24.65</ele>
        <time>2013-02-09T15:57:10Z</time>
      </trkpt>
      <trkpt lat="47.83351" lon="-3.39454">
        <ele>24.65</ele>
        <time>2013-02-09T15:57:20Z</time>
      </trkpt>
      <trkpt lat="47.83352" lon="-3.39451">
        <ele>24.17</ele>
        <time>2013-02-09T15:57:45Z</time>
      </trkpt>
      <trkpt lat="47.83354" lon="-3.39463">
        <ele>23.21</ele>
        <time>2013-02-09T15:57:55Z</time>
      </trkpt>
      <trkpt lat="47.83355" lon="-3.39469">
        <ele>22.25</ele>
        <time>2013-02-09T15:57:59Z</time>
      </trkpt>
      <trkpt lat="47.83356" lon="-3.39472">
        <ele>22.25</ele>
        <time>2013-02-09T15:58:01Z</time>
      </trkpt>
      <trkpt lat="47.83364" lon="-3.39486">
        <ele>19.36</ele>
        <time>2013-02-09T15:58:08Z</time>
      </trkpt>
      <trkpt lat="47.83371" lon="-3.3952">
        <ele>16</ele>
        <time>2013-02-09T15:58:14Z</time>
      </trkpt>
      <trkpt lat="47.83376" lon="-3.3955">
        <ele>14.08</ele>
        <time>2013-02-09T15:58:19Z</time>
      </trkpt>
      <trkpt lat="47.83383" lon="-3.39584">
        <ele>11.67</ele>
        <time>2013-02-09T15:58:25Z</time>
      </trkpt>
      <trkpt lat="47.83396" lon="-3.39613">
        <ele>12.15</ele>
        <time>2013-02-09T15:58:32Z</time>
      </trkpt>
      <trkpt lat="47.83399" lon="-3.39615">
        <ele>12.15</ele>
        <time>2013-02-09T15:58:33Z</time>
      </trkpt>
      <trkpt lat="47.83422" lon="-3.39621">
        <ele>14.56</ele>
        <time>2013-02-09T15:58:41Z</time>
      </trkpt>
      <trkpt lat="47.8344" lon="-3.39627">
        <ele>19.84</ele>
        <time>2013-02-09T15:58:48Z</time>
      </trkpt>
      <trkpt lat="47.83465" lon="-3.39638">
        <ele>22.25</ele>
        <time>2013-02-09T15:58:57Z</time>
      </trkpt>
      <trkpt lat="47.83481" lon="-3.39653">
        <ele>24.17</ele>
        <time>2013-02-09T15:59:05Z</time>
      </trkpt>
      <trkpt lat="47.83493" lon="-3.39671">
        <ele>26.57</ele>
        <time>2013-02-09T15:59:13Z</time>
      </trkpt>
      <trkpt lat="47.83506" lon="-3.39682">
        <ele>26.09</ele>
        <time>2013-02-09T15:59:22Z</time>
      </trkpt>
      <trkpt lat="47.8352" lon="-3.39701">
        <ele>26.57</ele>
        <time>2013-02-09T15:59:32Z</time>
      </trkpt>
      <trkpt lat="47.83524" lon="-3.39728">
        <ele>25.61</ele>
        <time>2013-02-09T15:59:41Z</time>
      </trkpt>
      <trkpt lat="47.83526" lon="-3.3973">
        <ele>25.61</ele>
        <time>2013-02-09T15:59:42Z</time>
      </trkpt>
      <trkpt lat="47.8353" lon="-3.39707">
        <ele>23.69</ele>
        <time>2013-02-09T15:59:48Z</time>
      </trkpt>
      <trkpt lat="47.83531" lon="-3.39699">
        <ele>20.81</ele>
        <time>2013-02-09T16:00:15Z</time>
      </trkpt>
      <trkpt lat="47.83532" lon="-3.39701">
        <ele>21.29</ele>
        <time>2013-02-09T16:00:36Z</time>
      </trkpt>
      <trkpt lat="47.83523" lon="-3.39748">
        <ele>26.09</ele>
        <time>2013-02-09T16:00:46Z</time>
      </trkpt>
      <trkpt lat="47.83513" lon="-3.39783">
        <ele>28.5</ele>
        <time>2013-02-09T16:00:56Z</time>
      </trkpt>
      <trkpt lat="47.83507" lon="-3.39807">
        <ele>28.98</ele>
        <time>2013-02-09T16:01:05Z</time>
      </trkpt>
      <trkpt lat="47.83502" lon="-3.39832">
        <ele>29.94</ele>
        <time>2013-02-09T16:01:14Z</time>
      </trkpt>
      <trkpt lat="47.83492" lon="-3.3986">
        <ele>30.9</ele>
        <time>2013-02-09T16:01:25Z</time>
      </trkpt>
      <trkpt lat="47.83485" lon="-3.39879">
        <ele>31.38</ele>
        <time>2013-02-09T16:01:33Z</time>
      </trkpt>
      <trkpt lat="47.83475" lon="-3.39899">
        <ele>31.38</ele>
        <time>2013-02-09T16:01:42Z</time>
      </trkpt>
      <trkpt lat="47.8347" lon="-3.39903">
        <ele>31.86</ele>
        <time>2013-02-09T16:01:46Z</time>
      </trkpt>
      <trkpt lat="47.83466" lon="-3.39909">
        <ele>31.86</ele>
        <time>2013-02-09T16:01:50Z</time>
      </trkpt>
      <trkpt lat="47.8345" lon="-3.39941">
        <ele>32.82</ele>
        <time>2013-02-09T16:02:03Z</time>
      </trkpt>
      <trkpt lat="47.83449" lon="-3.39944">
        <ele>31.86</ele>
        <time>2013-02-09T16:02:09Z</time>
      </trkpt>
      <trkpt lat="47.83445" lon="-3.39951">
        <ele>32.82</ele>
        <time>2013-02-09T16:03:51Z</time>
      </trkpt>
      <trkpt lat="47.83441" lon="-3.39954">
        <ele>32.34</ele>
        <time>2013-02-09T16:03:55Z</time>
      </trkpt>
      <trkpt lat="47.83434" lon="-3.39953">
        <ele>31.38</ele>
        <time>2013-02-09T16:03:59Z</time>
      </trkpt>
      <trkpt lat="47.83417" lon="-3.39952">
        <ele>29.46</ele>
        <time>2013-02-09T16:04:09Z</time>
      </trkpt>
      <trkpt lat="47.83398" lon="-3.39952">
        <ele>30.9</ele>
        <time>2013-02-09T16:04:14Z</time>
      </trkpt>
      <trkpt lat="47.83372" lon="-3.39954">
        <ele>34.26</ele>
        <time>2013-02-09T16:04:22Z</time>
      </trkpt>
      <trkpt lat="47.83345" lon="-3.39963">
        <ele>36.67</ele>
        <time>2013-02-09T16:04:31Z</time>
      </trkpt>
      <trkpt lat="47.83336" lon="-3.3997">
        <ele>39.07</ele>
        <time>2013-02-09T16:04:37Z</time>
      </trkpt>
      <trkpt lat="47.83326" lon="-3.39989">
        <ele>39.55</ele>
        <time>2013-02-09T16:04:47Z</time>
      </trkpt>
      <trkpt lat="47.83311" lon="-3.39994">
        <ele>40.51</ele>
        <time>2013-02-09T16:04:55Z</time>
      </trkpt>
      <trkpt lat="47.83299" lon="-3.39994">
        <ele>41.47</ele>
        <time>2013-02-09T16:05:02Z</time>
      </trkpt>
      <trkpt lat="47.83275" lon="-3.39999">
        <ele>43.4</ele>
        <time>2013-02-09T16:05:13Z</time>
      </trkpt>
      <trkpt lat="47.83255" lon="-3.4001">
        <ele>42.44</ele>
        <time>2013-02-09T16:05:21Z</time>
      </trkpt>
      <trkpt lat="47.83227" lon="-3.40026">
        <ele>40.99</ele>
        <time>2013-02-09T16:05:31Z</time>
      </trkpt>
      <trkpt lat="47.83207" lon="-3.40026">
        <ele>40.99</ele>
        <time>2013-02-09T16:05:39Z</time>
      </trkpt>
      <trkpt lat="47.83189" lon="-3.40054">
        <ele>40.51</ele>
        <time>2013-02-09T16:05:47Z</time>
      </trkpt>
      <trkpt lat="47.83167" lon="-3.40078">
        <ele>39.55</ele>
        <time>2013-02-09T16:05:55Z</time>
      </trkpt>
      <trkpt lat="47.8316" lon="-3.40099">
        <ele>40.51</ele>
        <time>2013-02-09T16:06:01Z</time>
      </trkpt>
      <trkpt lat="47.83151" lon="-3.40114">
        <ele>38.59</ele>
        <time>2013-02-09T16:06:07Z</time>
      </trkpt>
      <trkpt lat="47.83129" lon="-3.40151">
        <ele>37.15</ele>
        <time>2013-02-09T16:06:16Z</time>
      </trkpt>
      <trkpt lat="47.83101" lon="-3.40203">
        <ele>35.23</ele>
        <time>2013-02-09T16:06:25Z</time>
      </trkpt>
      <trkpt lat="47.8307" lon="-3.4026">
        <ele>33.3</ele>
        <time>2013-02-09T16:06:35Z</time>
      </trkpt>
      <trkpt lat="47.83045" lon="-3.40298">
        <ele>30.42</ele>
        <time>2013-02-09T16:06:44Z</time>
      </trkpt>
      <trkpt lat="47.83022" lon="-3.40329">
        <ele>29.46</ele>
        <time>2013-02-09T16:06:51Z</time>
      </trkpt>
      <trkpt lat="47.82988" lon="-3.40366">
        <ele>28.02</ele>
        <time>2013-02-09T16:06:57Z</time>
      </trkpt>
      <trkpt lat="47.82973" lon="-3.4039">
        <ele>26.57</ele>
        <time>2013-02-09T16:07:00Z</time>
      </trkpt>
      <trkpt lat="47.82959" lon="-3.40417">
        <ele>26.09</ele>
        <time>2013-02-09T16:07:03Z</time>
      </trkpt>
      <trkpt lat="47.82936" lon="-3.40411">
        <ele>25.13</ele>
        <time>2013-02-09T16:07:07Z</time>
      </trkpt>
      <trkpt lat="47.82934" lon="-3.404">
        <ele>25.13</ele>
        <time>2013-02-09T16:07:08Z</time>
      </trkpt>
      <trkpt lat="47.82931" lon="-3.40379">
        <ele>25.13</ele>
        <time>2013-02-09T16:07:10Z</time>
      </trkpt>
      <trkpt lat="47.82907" lon="-3.40364">
        <ele>24.17</ele>
        <time>2013-02-09T16:07:14Z</time>
      </trkpt>
      <trkpt lat="47.82898" lon="-3.40337">
        <ele>24.65</ele>
        <time>2013-02-09T16:07:18Z</time>
      </trkpt>
      <trkpt lat="47.82895" lon="-3.4033">
        <ele>24.65</ele>
        <time>2013-02-09T16:07:21Z</time>
      </trkpt>
      <trkpt lat="47.82895" lon="-3.4033">
        <ele>24.65</ele>
        <time>2013-02-09T16:07:32Z</time>
      </trkpt>
    </trkseg>
  </trk>
</gpx>